Observation data for Clyde on 05/28/2019      Previous  Date  Next       Current Mesonet Observations  Soil Data  Daily Summary Page  Observations in Plain Language
KCL2 280500Z 16017KT 24/19 A2975 RMK A01 T02360185  RH  073%=      5-min Rain = 0
KCL2 280501Z 16016KT 24/19 A2975 RMK A01 T02360185  RH  073%=      5-min Rain = 0
KCL2 280502Z 16015KT 24/18 A2975 RMK A01 T02360184  RH  073%=      5-min Rain = 0
KCL2 280503Z 16015KT 24/19 A2975 RMK A01 T02360185  RH  073%=      5-min Rain = 0
KCL2 280504Z 16017G22KT 24/19 A2975 RMK A01 T02350185  RH  073%=      5-min Rain = 0
KCL2 280505Z 16016G21KT 24/19 A2975 RMK A01 T02350185  RH  073%=      5-min Rain = 0
KCL2 280506Z 16015KT 24/18 A2975 RMK A01 T02350184  RH  073%=      5-min Rain = 0
KCL2 280507Z 16015KT 24/19 A2975 RMK A01 T02350185  RH  073%=      5-min Rain = 0
KCL2 280508Z 16015KT 24/19 A2975 RMK A01 T02350185  RH  073%=      5-min Rain = 0
KCL2 280509Z 16015KT 23/18 A2975 RMK A01 T02340184  RH  074%=      5-min Rain = 0
KCL2 280510Z 16016KT 24/19 A2975 RMK A01 T02350185  RH  074%=      5-min Rain = 0
KCL2 280511Z 16016KT 23/19 A2975 RMK A01 T02340185  RH  074%=      5-min Rain = 0
KCL2 280512Z 16019KT 23/18 A2975 RMK A01 T02340184  RH  074%=      5-min Rain = 0
KCL2 280513Z 16015G20KT 23/18 A2975 RMK A01 T02340184  RH  074%=      5-min Rain = 0
KCL2 280514Z 16015KT 23/18 A2975 RMK A01 T02340184  RH  074%=      5-min Rain = 0
KCL2 280515Z 16014G20KT 23/19 A2975 RMK A01 T02340185  RH  074%=      5-min Rain = 0
KCL2 280516Z 16014KT 23/19 A2975 RMK A01 T02340185  RH  074%=      5-min Rain = 0
KCL2 280517Z 16016KT 23/19 A2975 RMK A01 T02340185  RH  074%=      5-min Rain = 0
KCL2 280518Z 16017KT 23/18 A2975 RMK A01 T02330184  RH  074%=      5-min Rain = 0
KCL2 280519Z 16017KT 23/19 A2975 RMK A01 T02340185  RH  074%=      5-min Rain = 0
KCL2 280520Z 16017G22KT 23/19 A2975 RMK A01 T02330185  RH  074%=      5-min Rain = 0
KCL2 280521Z 16017KT 23/19 A2975 RMK A01 T02330185  RH  074%=      5-min Rain = 0
KCL2 280522Z 16019KT 23/19 A2975 RMK A01 T02330185  RH  074%=      5-min Rain = 0
KCL2 280523Z 16015KT 23/19 A2975 RMK A01 T02330185  RH  074%=      5-min Rain = 0
KCL2 280524Z 16016KT 23/19 A2975 RMK A01 T02330185  RH  074%=      5-min Rain = 0
KCL2 280525Z 16016KT 23/19 A2975 RMK A01 T02330185  RH  074%=      5-min Rain = 0
KCL2 280526Z 16016KT 23/19 A2974 RMK A01 T02330185  RH  074%=      5-min Rain = 0
KCL2 280527Z 16017G22KT 23/19 A2975 RMK A01 T02330186  RH  075%=      5-min Rain = 0
KCL2 280528Z 16015KT 23/19 A2974 RMK A01 T02330185  RH  075%=      5-min Rain = 0
KCL2 280529Z 16015KT 23/19 A2974 RMK A01 T02320185  RH  075%=      5-min Rain = 0
KCL2 280530Z 16018KT 23/19 A2974 RMK A01 T02320185  RH  075%=      5-min Rain = 0
KCL2 280531Z 16018G24KT 23/19 A2974 RMK A01 T02320185  RH  075%=      5-min Rain = 0
KCL2 280532Z 17017KT 23/19 A2975 RMK A01 T02320185  RH  075%=      5-min Rain = 0
KCL2 280533Z 16015G20KT 23/19 A2974 RMK A01 T02320186  RH  075%=      5-min Rain = 0
KCL2 280534Z 16017KT 23/19 A2974 RMK A01 T02310186  RH  076%=      5-min Rain = 0
KCL2 280535Z 16015KT 23/19 A2975 RMK A01 T02310186  RH  076%=      5-min Rain = 0
KCL2 280536Z 16016KT 23/19 A2974 RMK A01 T02300186  RH  076%=      5-min Rain = 0
KCL2 280537Z 16017KT 23/19 A2974 RMK A01 T02300186  RH  076%=      5-min Rain = 0
KCL2 280538Z 17019KT 23/19 A2974 RMK A01 T02300186  RH  076%=      5-min Rain = 0
KCL2 280539Z 16017KT 23/19 A2974 RMK A01 T02300186  RH  076%=      5-min Rain = 0
KCL2 280540Z 16016KT 23/19 A2974 RMK A01 T02300186  RH  076%=      5-min Rain = 0
KCL2 280541Z 16017G23KT 23/19 A2974 RMK A01 T02300186  RH  076%=      5-min Rain = 0
KCL2 280542Z 16018G23KT 23/19 A2974 RMK A01 T02290186  RH  077%=      5-min Rain = 0
KCL2 280543Z 16016G21KT 23/19 A2974 RMK A01 T02290186  RH  077%=      5-min Rain = 0
KCL2 280544Z 16016G21KT 23/19 A2974 RMK A01 T02290187  RH  077%=      5-min Rain = 0
KCL2 280545Z 16014KT 23/19 A2974 RMK A01 T02290186  RH  077%=      5-min Rain = 0
KCL2 280546Z 16013KT 23/19 A2974 RMK A01 T02290187  RH  077%=      5-min Rain = 0
KCL2 280547Z 16013KT 23/19 A2974 RMK A01 T02280186  RH  077%=      5-min Rain = 0
KCL2 280548Z 16016G21KT 23/19 A2974 RMK A01 T02280187  RH  077%=      5-min Rain = 0
KCL2 280549Z 17015KT 23/19 A2974 RMK A01 T02280187  RH  078%=      5-min Rain = 0
KCL2 280550Z 16014KT 23/19 A2974 RMK A01 T02280187  RH  078%=      5-min Rain = 0
KCL2 280551Z 17015KT 23/19 A2974 RMK A01 T02280187  RH  078%=      5-min Rain = 0
KCL2 280552Z 16016G22KT 23/19 A2974 RMK A01 T02280187  RH  078%=      5-min Rain = 0
KCL2 280553Z 16016G22KT 23/19 A2974 RMK A01 T02280187  RH  078%=      5-min Rain = 0
KCL2 280554Z 16018G23KT 23/19 A2974 RMK A01 T02270187  RH  078%=      5-min Rain = 0
KCL2 280555Z 16014KT 23/19 A2974 RMK A01 T02270187  RH  078%=      5-min Rain = 0
KCL2 280556Z 16014KT 23/19 A2974 RMK A01 T02270187  RH  078%=      5-min Rain = 0
KCL2 280557Z 16014KT 23/19 A2974 RMK A01 T02270187  RH  078%=      5-min Rain = 0
KCL2 280558Z 16016KT 23/19 A2974 RMK A01 T02270187  RH  078%=      5-min Rain = 0
KCL2 280559Z 16018G24KT 23/19 A2974 RMK A01 T02270187  RH  078%=      5-min Rain = 0
KCL2 280600Z 16016KT 23/19 A2974 RMK A01 T02270187  RH  078%=      5-min Rain = 0
KCL2 280601Z 16012KT 23/19 A2974 RMK A01 T02270187  RH  078%=      5-min Rain = 0
KCL2 280602Z 16017G22KT 23/19 A2974 RMK A01 T02270188  RH  079%=      5-min Rain = 0
KCL2 280603Z 16016G22KT 23/19 A2974 RMK A01 T02260188  RH  079%=      5-min Rain = 0
KCL2 280604Z 16018KT 23/19 A2974 RMK A01 T02270188  RH  079%=      5-min Rain = 0
KCL2 280605Z 16020KT 23/19 A2974 RMK A01 T02270188  RH  079%=      5-min Rain = 0
KCL2 280606Z 16020G26KT 23/19 A2974 RMK A01 T02270188  RH  078%=      5-min Rain = 0
KCL2 280607Z 16017G22KT 23/19 A2973 RMK A01 T02280188  RH  078%=      5-min Rain = 0
KCL2 280608Z 16017KT 23/19 A2973 RMK A01 T02270188  RH  079%=      5-min Rain = 0
KCL2 280609Z 16016G22KT 23/19 A2973 RMK A01 T02270188  RH  079%=      5-min Rain = 0
KCL2 280610Z 16018KT 23/19 A2973 RMK A01 T02260188  RH  079%=      5-min Rain = 0
KCL2 280611Z 16015KT 23/19 A2973 RMK A01 T02270189  RH  079%=      5-min Rain = 0
KCL2 280612Z 16018KT 23/19 A2973 RMK A01 T02260189  RH  079%=      5-min Rain = 0
KCL2 280613Z 16017KT 23/19 A2973 RMK A01 T02270189  RH  079%=      5-min Rain = 0
KCL2 280614Z 16019KT 23/19 A2973 RMK A01 T02270189  RH  079%=      5-min Rain = 0
KCL2 280615Z 16017G24KT 23/19 A2973 RMK A01 T02270189  RH  079%=      5-min Rain = 0
KCL2 280616Z 16016G23KT 23/19 A2973 RMK A01 T02270189  RH  079%=      5-min Rain = 0
KCL2 280617Z 16016KT 23/19 A2973 RMK A01 T02270190  RH  080%=      5-min Rain = 0
KCL2 280618Z 16017G24KT 23/19 A2973 RMK A01 T02260189  RH  080%=      5-min Rain = 0
KCL2 280619Z 17018KT 23/19 A2973 RMK A01 T02260190  RH  080%=      5-min Rain = 0
KCL2 280620Z 16016KT 23/19 A2973 RMK A01 T02260190  RH  080%=      5-min Rain = 0
KCL2 280621Z 16016KT 23/19 A2973 RMK A01 T02260190  RH  080%=      5-min Rain = 0
KCL2 280622Z 16015KT 23/19 A2973 RMK A01 T02260190  RH  080%=      5-min Rain = 0
KCL2 280623Z 16013KT 23/19 A2973 RMK A01 T02260190  RH  080%=      5-min Rain = 0
KCL2 280624Z 16016G21KT 23/19 A2973 RMK A01 T02250190  RH  081%=      5-min Rain = 0
KCL2 280625Z 16017KT 22/19 A2973 RMK A01 T02240190  RH  081%=      5-min Rain = 0
KCL2 280626Z 16017G22KT 23/19 A2973 RMK A01 T02250191  RH  081%=      5-min Rain = 0
KCL2 280627Z 17017KT 23/19 A2973 RMK A01 T02250191  RH  081%=      5-min Rain = 0
KCL2 280628Z 16017KT 23/19 A2973 RMK A01 T02250191  RH  081%=      5-min Rain = 0
KCL2 280629Z 16016G21KT 23/19 A2973 RMK A01 T02250191  RH  081%=      5-min Rain = 0
KCL2 280630Z 16016G21KT 23/19 A2973 RMK A01 T02250191  RH  081%=      5-min Rain = 0
KCL2 280631Z 16014KT 23/19 A2973 RMK A01 T02250192  RH  081%=      5-min Rain = 0
KCL2 280632Z 17014KT 23/19 A2973 RMK A01 T02250192  RH  082%=      5-min Rain = 0
KCL2 280633Z 16016KT 23/19 A2973 RMK A01 T02250193  RH  082%=      5-min Rain = 0
KCL2 280634Z 16016KT 23/19 A2973 RMK A01 T02250192  RH  082%=      5-min Rain = 0
KCL2 280635Z 17018KT 23/19 A2973 RMK A01 T02250193  RH  082%=      5-min Rain = 0
KCL2 280636Z 16018G23KT 23/19 A2973 RMK A01 T02250192  RH  082%=      5-min Rain = 0
KCL2 280637Z 16016KT 23/19 A2973 RMK A01 T02250192  RH  082%=      5-min Rain = 0
KCL2 280638Z 16015G20KT 23/19 A2973 RMK A01 T02250192  RH  082%=      5-min Rain = 0
KCL2 280639Z 16017G23KT 22/19 A2973 RMK A01 T02240193  RH  082%=      5-min Rain = 0
KCL2 280640Z 16019KT 22/19 A2972 RMK A01 T02240193  RH  083%=      5-min Rain = 0
KCL2 280641Z 16015G21KT 23/19 A2972 RMK A01 T02250193  RH  083%=      5-min Rain = 0
KCL2 280642Z 16015G22KT 22/19 A2972 RMK A01 T02240193  RH  083%=      5-min Rain = 0
KCL2 280643Z 16014G19KT 22/19 A2972 RMK A01 T02240194  RH  083%=      5-min Rain = 0
KCL2 280644Z 16017KT 22/19 A2972 RMK A01 T02240194  RH  083%=      5-min Rain = 0
KCL2 280645Z 16014G19KT 22/19 A2972 RMK A01 T02240194  RH  083%=      5-min Rain = 0
KCL2 280646Z 16016G21KT 22/19 A2972 RMK A01 T02240194  RH  083%=      5-min Rain = 0
KCL2 280647Z 16015KT 22/20 A2972 RMK A01 T02240195  RH  083%=      5-min Rain = 0
KCL2 280648Z 17017G22KT 22/19 A2972 RMK A01 T02240194  RH  083%=      5-min Rain = 0
KCL2 280649Z 16014G21KT 22/19 A2972 RMK A01 T02240194  RH  083%=      5-min Rain = 0
KCL2 280650Z 17016G21KT 22/20 A2972 RMK A01 T02240195  RH  084%=      5-min Rain = 0
KCL2 280651Z 16017G23KT 22/20 A2972 RMK A01 T02240195  RH  084%=      5-min Rain = 0
KCL2 280652Z 16016G25KT 22/20 A2972 RMK A01 T02230195  RH  084%=      5-min Rain = 0
KCL2 280653Z 16019KT 22/20 A2972 RMK A01 T02240195  RH  084%=      5-min Rain = 0
KCL2 280654Z 16016KT 22/19 A2972 RMK A01 T02230194  RH  084%=      5-min Rain = 0
KCL2 280655Z 16016KT 22/20 A2972 RMK A01 T02230195  RH  084%=      5-min Rain = 0
KCL2 280656Z 16016KT 22/20 A2972 RMK A01 T02230195  RH  084%=      5-min Rain = 0
KCL2 280657Z 16015G21KT 22/20 A2972 RMK A01 T02230195  RH  084%=      5-min Rain = 0
KCL2 280658Z 16015KT 22/20 A2972 RMK A01 T02230195  RH  084%=      5-min Rain = 0
KCL2 280659Z 16015G21KT 22/20 A2972 RMK A01 T02230195  RH  084%=      5-min Rain = 0
KCL2 280700Z 16016KT 22/20 A2971 RMK A01 T02230195  RH  084%=      5-min Rain = 0
KCL2 280701Z 16017G23KT 22/20 A2971 RMK A01 T02230195  RH  084%=      5-min Rain = 0
KCL2 280702Z 16014KT 22/20 A2971 RMK A01 T02230196  RH  084%=      5-min Rain = 0
KCL2 280703Z 16016KT 22/20 A2971 RMK A01 T02230196  RH  084%=      5-min Rain = 0
KCL2 280704Z 16018G24KT 22/20 A2971 RMK A01 T02230196  RH  084%=      5-min Rain = 0
KCL2 280705Z 16016KT 22/20 A2971 RMK A01 T02230196  RH  085%=      5-min Rain = 0
KCL2 280706Z 17017KT 22/20 A2971 RMK A01 T02230196  RH  085%=      5-min Rain = 0
KCL2 280707Z 16019G25KT 22/20 A2971 RMK A01 T02240196  RH  085%=      5-min Rain = 0
KCL2 280708Z 16018KT 22/20 A2971 RMK A01 T02230196  RH  085%=      5-min Rain = 0
KCL2 280709Z 16015KT 22/20 A2971 RMK A01 T02230196  RH  085%=      5-min Rain = 0
KCL2 280710Z 17015KT 22/20 A2971 RMK A01 T02230196  RH  085%=      5-min Rain = 0
KCL2 280711Z 16014G21KT 22/20 A2971 RMK A01 T02230197  RH  085%=      5-min Rain = 0
KCL2 280712Z 16017G23KT 22/20 A2971 RMK A01 T02230197  RH  085%=      5-min Rain = 0
KCL2 280713Z 16014G19KT 22/20 A2971 RMK A01 T02230197  RH  085%=      5-min Rain = 0
KCL2 280714Z 16016KT 22/20 A2971 RMK A01 T02220197  RH  085%=      5-min Rain = 0
KCL2 280715Z 16015G21KT 22/20 A2971 RMK A01 T02220197  RH  085%=      5-min Rain = 0
KCL2 280716Z 17017KT 22/20 A2971 RMK A01 T02220197  RH  085%=      5-min Rain = 0
KCL2 280717Z 17019G24KT 22/20 A2971 RMK A01 T02230197  RH  085%=      5-min Rain = 0
KCL2 280718Z 16016KT 22/20 A2971 RMK A01 T02220197  RH  085%=      5-min Rain = 0
KCL2 280719Z 16015KT 22/20 A2971 RMK A01 T02230197  RH  085%=      5-min Rain = 0
KCL2 280720Z 16017G22KT 22/20 A2971 RMK A01 T02230197  RH  085%=      5-min Rain = 0
KCL2 280721Z 16018KT 22/20 A2971 RMK A01 T02220197  RH  086%=      5-min Rain = 0
KCL2 280722Z 17015KT 22/20 A2971 RMK A01 T02220197  RH  086%=      5-min Rain = 0
KCL2 280723Z 17017G24KT 22/20 A2971 RMK A01 T02220197  RH  086%=      5-min Rain = 0
KCL2 280724Z 17015KT 22/20 A2971 RMK A01 T02230198  RH  086%=      5-min Rain = 0
KCL2 280725Z 17017KT 22/20 A2971 RMK A01 T02230198  RH  086%=      5-min Rain = 0
KCL2 280726Z 16018KT 22/20 A2971 RMK A01 T02230198  RH  086%=      5-min Rain = 0
KCL2 280727Z 16016KT 22/20 A2971 RMK A01 T02220198  RH  086%=      5-min Rain = 0
KCL2 280728Z 17018KT 22/20 A2971 RMK A01 T02220198  RH  086%=      5-min Rain = 0
KCL2 280729Z 17018KT 22/20 A2971 RMK A01 T02220198  RH  086%=      5-min Rain = 0
KCL2 280730Z 16016KT 22/20 A2971 RMK A01 T02230198  RH  086%=      5-min Rain = 0
KCL2 280731Z 16019G25KT 22/20 A2971 RMK A01 T02230198  RH  086%=      5-min Rain = 0
KCL2 280732Z 16015KT 22/20 A2971 RMK A01 T02220198  RH  086%=      5-min Rain = 0
KCL2 280733Z 16017G22KT 22/20 A2971 RMK A01 T02220198  RH  086%=      5-min Rain = 0
KCL2 280734Z 17019KT 22/20 A2971 RMK A01 T02220198  RH  086%=      5-min Rain = 0
KCL2 280735Z 17017KT 22/20 A2971 RMK A01 T02220198  RH  086%=      5-min Rain = 0
KCL2 280736Z 16014KT 22/20 A2971 RMK A01 T02220198  RH  086%=      5-min Rain = 0
KCL2 280737Z 16014KT 22/20 A2971 RMK A01 T02220198  RH  087%=      5-min Rain = 0
KCL2 280738Z 17017G22KT 22/20 A2971 RMK A01 T02220199  RH  087%=      5-min Rain = 0
KCL2 280739Z 17017G23KT 22/20 A297 RMK A01 T02210198  RH  087%=      5-min Rain = 0
KCL2 280740Z 17015KT 22/20 A2971 RMK A01 T02220198  RH  087%=      5-min Rain = 0
KCL2 280741Z 17014KT 22/20 A2971 RMK A01 T02210198  RH  087%=      5-min Rain = 0
KCL2 280742Z 16018G25KT 22/20 A2971 RMK A01 T02210198  RH  087%=      5-min Rain = 0
KCL2 280743Z 16018G25KT 22/20 A297 RMK A01 T02210198  RH  087%=      5-min Rain = 0
KCL2 280744Z 16017KT 22/20 A297 RMK A01 T02210199  RH  087%=      5-min Rain = 0
KCL2 280745Z 17014KT 22/20 A297 RMK A01 T02210199  RH  087%=      5-min Rain = 0
KCL2 280746Z 17018G25KT 22/20 A297 RMK A01 T02210199  RH  087%=      5-min Rain = 0
KCL2 280747Z 17018KT 22/20 A297 RMK A01 T02200199  RH  087%=      5-min Rain = 0
KCL2 280748Z 17020KT 22/20 A297 RMK A01 T02210199  RH  087%=      5-min Rain = 0
KCL2 280749Z 16016G21KT 22/20 A297 RMK A01 T02210199  RH  087%=      5-min Rain = 0
KCL2 280750Z 17018G26KT 22/20 A297 RMK A01 T02210199  RH  087%=      5-min Rain = 0
KCL2 280751Z 17019KT 22/20 A297 RMK A01 T02210199  RH  087%=      5-min Rain = 0
KCL2 280752Z 17017G22KT 22/20 A297 RMK A01 T02210199  RH  088%=      5-min Rain = 0
KCL2 280753Z 17016G21KT 22/20 A297 RMK A01 T02210199  RH  088%=      5-min Rain = 0
KCL2 280754Z 17016KT 22/20 A297 RMK A01 T02200199  RH  088%=      5-min Rain = 0
KCL2 280755Z 17017KT 22/20 A297 RMK A01 T02200199  RH  088%=      5-min Rain = 0
KCL2 280756Z 17022G27KT 22/20 A297 RMK A01 T02200200  RH  088%=      5-min Rain = 0
KCL2 280757Z 17021KT 22/20 A297 RMK A01 T02200199  RH  088%=      5-min Rain = 0
KCL2 280758Z 16015KT 22/20 A297 RMK A01 T02200199  RH  088%=      5-min Rain = 0
KCL2 280759Z 16018KT 22/20 A297 RMK A01 T02200200  RH  088%=      5-min Rain = 0
KCL2 280800Z 17018G24KT 22/20 A297 RMK A01 T02200200  RH  088%=      5-min Rain = 0
KCL2 280801Z 17016KT 22/20 A297 RMK A01 T02200199  RH  088%=      5-min Rain = 0
KCL2 280802Z 17014KT 22/20 A297 RMK A01 T02200199  RH  088%=      5-min Rain = 0
KCL2 280803Z 17014KT 22/20 A297 RMK A01 T02200199  RH  088%=      5-min Rain = 0
KCL2 280804Z 17015G20KT 22/20 A297 RMK A01 T02200200  RH  088%=      5-min Rain = 0
KCL2 280805Z 17018G23KT 22/20 A2969 RMK A01 T02190200  RH  089%=      5-min Rain = 0
KCL2 280806Z 17017G22KT 22/20 A2969 RMK A01 T02190200  RH  089%=      5-min Rain = 0
KCL2 280807Z 16019KT 22/20 A2969 RMK A01 T02190200  RH  089%=      5-min Rain = 0
KCL2 280808Z 17018G24KT 22/20 A2969 RMK A01 T02190200  RH  089%=      5-min Rain = 0
KCL2 280809Z 17018KT 22/20 A2969 RMK A01 T02200200  RH  089%=      5-min Rain = 0
KCL2 280810Z 17019G24KT 22/20 A2969 RMK A01 T02200200  RH  089%=      5-min Rain = 0
KCL2 280811Z 17015G21KT 22/20 A2969 RMK A01 T02200200  RH  089%=      5-min Rain = 0
KCL2 280812Z 17019G24KT 22/20 A2969 RMK A01 T02200200  RH  089%=      5-min Rain = 0
KCL2 280813Z 17019G24KT 22/20 A2969 RMK A01 T02200200  RH  089%=      5-min Rain = 0
KCL2 280814Z 17015KT 22/20 A2969 RMK A01 T02200200  RH  089%=      5-min Rain = 0
KCL2 280815Z 17016G21KT 22/20 A2969 RMK A01 T02190200  RH  089%=      5-min Rain = 0
KCL2 280816Z 17017KT 22/20 A2969 RMK A01 T02190201  RH  089%=      5-min Rain = 0
KCL2 280817Z 17018G25KT 22/20 A2969 RMK A01 T02190201  RH  089%=      5-min Rain = 0
KCL2 280818Z 17019G24KT 22/20 A2969 RMK A01 T02190201  RH  089%=      5-min Rain = 0
KCL2 280819Z 18020KT 22/20 A2969 RMK A01 T02200201  RH  089%=      5-min Rain = 0
KCL2 280820Z 17017G22KT 22/20 A2969 RMK A01 T02200201  RH  089%=      5-min Rain = 0
KCL2 280821Z 17016G21KT 22/20 A2969 RMK A01 T02200201  RH  089%=      5-min Rain = 0
KCL2 280822Z 17017KT 22/20 A2969 RMK A01 T02200201  RH  089%=      5-min Rain = 0
KCL2 280823Z 17021KT 22/20 A2969 RMK A01 T02190201  RH  089%=      5-min Rain = 0
KCL2 280824Z 17019G24KT 22/20 A2969 RMK A01 T02190201  RH  089%=      5-min Rain = 0
KCL2 280825Z 17019G26KT 22/20 A2969 RMK A01 T02200201  RH  089%=      5-min Rain = 0
KCL2 280826Z 17019G24KT 22/20 A2969 RMK A01 T02200201  RH  089%=      5-min Rain = 0
KCL2 280827Z 17017KT 22/20 A2969 RMK A01 T02200201  RH  089%=      5-min Rain = 0
KCL2 280828Z 17020G26KT 22/20 A2969 RMK A01 T02200202  RH  089%=      5-min Rain = 0
KCL2 280829Z 18014G20KT 22/20 A2969 RMK A01 T02200202  RH  089%=      5-min Rain = 0
KCL2 280830Z 17013KT 22/20 A2969 RMK A01 T02190201  RH  089%=      5-min Rain = 0
KCL2 280831Z 17019KT 22/20 A2969 RMK A01 T02190201  RH  090%=      5-min Rain = 0
KCL2 280832Z 17018G25KT 22/20 A2969 RMK A01 T02190202  RH  090%=      5-min Rain = 0
KCL2 280833Z 17017KT 22/20 A2968 RMK A01 T02190202  RH  090%=      5-min Rain = 0
KCL2 280834Z 17016G22KT 22/20 A2968 RMK A01 T02190201  RH  090%=      5-min Rain = 0
KCL2 280835Z 17018G24KT 22/20 A2968 RMK A01 T02190201  RH  090%=      5-min Rain = 0
KCL2 280836Z 17016KT 22/20 A2968 RMK A01 T02190201  RH  090%=      5-min Rain = 0
KCL2 280837Z 17014KT 22/20 A2968 RMK A01 T02190201  RH  090%=      5-min Rain = 0
KCL2 280838Z 17013KT 22/20 A2968 RMK A01 T02190201  RH  090%=      5-min Rain = 0
KCL2 280839Z 17017G22KT 22/20 A2968 RMK A01 T02180201  RH  090%=      5-min Rain = 0
KCL2 280840Z 17018G24KT 22/20 A2968 RMK A01 T02180202  RH  090%=      5-min Rain = 0
KCL2 280841Z 17019G25KT 22/20 A2968 RMK A01 T02180202  RH  090%=      5-min Rain = 0
KCL2 280842Z 18018KT 22/20 A2968 RMK A01 T02190202  RH  090%=      5-min Rain = 0
KCL2 280843Z 17017G23KT 22/20 A2968 RMK A01 T02190202  RH  090%=      5-min Rain = 0
KCL2 280844Z 17015G23KT 22/20 A2968 RMK A01 T02190202  RH  090%=      5-min Rain = 0
KCL2 280845Z 17014G20KT 22/20 A2968 RMK A01 T02180202  RH  090%=      5-min Rain = 0
KCL2 280846Z 18018G23KT 22/20 A2968 RMK A01 T02180202  RH  090%=      5-min Rain = 0
KCL2 280847Z 17015G20KT 22/20 A2968 RMK A01 T02180202  RH  091%=      5-min Rain = 0
KCL2 280848Z 17017G22KT 22/20 A2968 RMK A01 T02180202  RH  090%=      5-min Rain = 0
KCL2 280849Z 17016KT 22/20 A2968 RMK A01 T02180202  RH  090%=      5-min Rain = 0
KCL2 280850Z 18016G21KT 22/20 A2968 RMK A01 T02180202  RH  090%=      5-min Rain = 0
KCL2 280851Z 17016G21KT 22/20 A2968 RMK A01 T02180202  RH  091%=      5-min Rain = 0
KCL2 280852Z 17013G18KT 22/20 A2968 RMK A01 T02180202  RH  091%=      5-min Rain = 0
KCL2 280853Z 17018G23KT 22/20 A2968 RMK A01 T02180202  RH  091%=      5-min Rain = 0
KCL2 280854Z 17015G22KT 22/20 A2968 RMK A01 T02180202  RH  091%=      5-min Rain = 0
KCL2 280855Z 18016G22KT 22/20 A2968 RMK A01 T02180202  RH  091%=      5-min Rain = 0
KCL2 280856Z 17014G20KT 22/20 A2968 RMK A01 T02180202  RH  091%=      5-min Rain = 0
KCL2 280857Z 18017KT 22/20 A2968 RMK A01 T02180202  RH  091%=      5-min Rain = 0
KCL2 280858Z 17016KT 22/20 A2968 RMK A01 T02180202  RH  091%=      5-min Rain = 0
KCL2 280859Z 18015G23KT 22/20 A2968 RMK A01 T02180202  RH  091%=      5-min Rain = 0
KCL2 280900Z 17020G25KT 22/20 A2968 RMK A01 T02180202  RH  091%=      5-min Rain = 0
KCL2 280901Z 17018G24KT 22/20 A2968 RMK A01 T02180202  RH  091%=      5-min Rain = 0
KCL2 280902Z 18015G21KT 22/20 A2968 RMK A01 T02180202  RH  091%=      5-min Rain = 0
KCL2 280903Z 18015KT 22/20 A2968 RMK A01 T02180202  RH  091%=      5-min Rain = 0
KCL2 280904Z 17020KT 22/20 A2968 RMK A01 T02180203  RH  091%=      5-min Rain = 0
KCL2 280905Z 18018KT 22/20 A2968 RMK A01 T02180202  RH  091%=      5-min Rain = 0
KCL2 280906Z 18019KT 22/20 A2968 RMK A01 T02180202  RH  091%=      5-min Rain = 0
KCL2 280907Z 17017KT 22/20 A2968 RMK A01 T02190203  RH  091%=      5-min Rain = 0
KCL2 280908Z 17013KT 22/20 A2968 RMK A01 T02190203  RH  091%=      5-min Rain = 0
KCL2 280909Z 17014KT 22/20 A2968 RMK A01 T02190202  RH  091%=      5-min Rain = 0
KCL2 280910Z 17015KT 22/20 A2968 RMK A01 T02180203  RH  091%=      5-min Rain = 0
KCL2 280911Z 17017KT 22/20 A2968 RMK A01 T02180203  RH  091%=      5-min Rain = 0
KCL2 280912Z 17016G21KT 22/20 A2968 RMK A01 T02180203  RH  091%=      5-min Rain = 0
KCL2 280913Z 17014G19KT 22/20 A2968 RMK A01 T02180203  RH  091%=      5-min Rain = 0
KCL2 280914Z 18016G21KT 22/20 A2968 RMK A01 T02180203  RH  091%=      5-min Rain = 0
KCL2 280915Z 17017KT 22/20 A2968 RMK A01 T02170203  RH  091%=      5-min Rain = 0
KCL2 280916Z 17017G23KT 22/20 A2968 RMK A01 T02170203  RH  091%=      5-min Rain = 0
KCL2 280917Z 17015G20KT 22/20 A2968 RMK A01 T02180203  RH  091%=      5-min Rain = 0
KCL2 280918Z 17016KT 22/20 A2968 RMK A01 T02180203  RH  091%=      5-min Rain = 0
KCL2 280919Z 17015KT 22/20 A2968 RMK A01 T02180203  RH  091%=      5-min Rain = 0
KCL2 280920Z 17015KT 22/20 A2968 RMK A01 T02180203  RH  091%=      5-min Rain = 0
KCL2 280921Z 17016KT 22/20 A2968 RMK A01 T02180203  RH  091%=      5-min Rain = 0
KCL2 280922Z 17018KT 22/20 A2968 RMK A01 T02180203  RH  091%=      5-min Rain = 0
KCL2 280923Z 17016G22KT 22/20 A2968 RMK A01 T02180203  RH  091%=      5-min Rain = 0
KCL2 280924Z 18016G22KT 22/20 A2968 RMK A01 T02180203  RH  091%=      5-min Rain = 0
KCL2 280925Z 17015KT 22/20 A2968 RMK A01 T02180203  RH  091%=      5-min Rain = 0
KCL2 280926Z 18015G21KT 22/20 A2968 RMK A01 T02180203  RH  091%=      5-min Rain = 0
KCL2 280927Z 17017G22KT 22/20 A2967 RMK A01 T02180203  RH  091%=      5-min Rain = 0
KCL2 280928Z 17017G23KT 22/20 A2968 RMK A01 T02180203  RH  091%=      5-min Rain = 0
KCL2 280929Z 17017KT 22/20 A2968 RMK A01 T02180203  RH  091%=      5-min Rain = 0
KCL2 280930Z 17019KT 22/20 A2967 RMK A01 T02190203  RH  091%=      5-min Rain = 0
KCL2 280931Z 17018KT 22/20 A2968 RMK A01 T02180203  RH  091%=      5-min Rain = 0
KCL2 280932Z 17016KT 22/20 A2968 RMK A01 T02190203  RH  091%=      5-min Rain = 0
KCL2 280933Z 17016G22KT 22/20 A2968 RMK A01 T02190203  RH  091%=      5-min Rain = 0
KCL2 280934Z 17017KT 22/20 A2968 RMK A01 T02190203  RH  091%=      5-min Rain = 0
KCL2 280935Z 17018KT 22/20 A2968 RMK A01 T02190202  RH  090%=      5-min Rain = 0
KCL2 280936Z 17019KT 22/20 A2968 RMK A01 T02190203  RH  090%=      5-min Rain = 0
KCL2 280937Z 17016KT 22/20 A2968 RMK A01 T02190202  RH  090%=      5-min Rain = 0
KCL2 280938Z 17015KT 22/20 A2968 RMK A01 T02190202  RH  090%=      5-min Rain = 0
KCL2 280939Z 17016KT 22/20 A2968 RMK A01 T02190203  RH  090%=      5-min Rain = 0
KCL2 280940Z 18017G22KT 22/20 A2968 RMK A01 T02190203  RH  090%=      5-min Rain = 0
KCL2 280941Z 17020KT 22/20 A2968 RMK A01 T02190203  RH  090%=      5-min Rain = 0
KCL2 280942Z 17017G22KT 22/20 A2968 RMK A01 T02190202  RH  090%=      5-min Rain = 0
KCL2 280943Z 18016KT 22/20 A2968 RMK A01 T02200202  RH  090%=      5-min Rain = 0
KCL2 280944Z 18017G22KT 22/20 A2968 RMK A01 T02200202  RH  090%=      5-min Rain = 0
KCL2 280945Z 18017KT 22/20 A2968 RMK A01 T02200202  RH  090%=      5-min Rain = 0
KCL2 280946Z 17018G23KT 22/20 A2968 RMK A01 T02200202  RH  090%=      5-min Rain = 0
KCL2 280947Z 17018KT 22/20 A2968 RMK A01 T02200202  RH  090%=      5-min Rain = 0
KCL2 280948Z 17018KT 22/20 A2968 RMK A01 T02200202  RH  089%=      5-min Rain = 0
KCL2 280949Z 17019G25KT 22/20 A2968 RMK A01 T02210202  RH  089%=      5-min Rain = 0
KCL2 280950Z 18019KT 22/20 A2968 RMK A01 T02210202  RH  089%=      5-min Rain = 0
KCL2 280951Z 18015KT 22/20 A2968 RMK A01 T02210202  RH  089%=      5-min Rain = 0
KCL2 280952Z 18016KT 22/20 A2968 RMK A01 T02220202  RH  089%=      5-min Rain = 0
KCL2 280953Z 17017KT 22/20 A2968 RMK A01 T02220202  RH  089%=      5-min Rain = 0
KCL2 280954Z 17018KT 22/20 A2968 RMK A01 T02220202  RH  089%=      5-min Rain = 0
KCL2 280955Z 18017G25KT 22/20 A2968 RMK A01 T02220202  RH  089%=      5-min Rain = 0
KCL2 280956Z 18015KT 22/20 A2968 RMK A01 T02220201  RH  088%=      5-min Rain = 0
KCL2 280957Z 18017G23KT 22/20 A2968 RMK A01 T02220202  RH  088%=      5-min Rain = 0
KCL2 280958Z 18020G25KT 22/20 A2968 RMK A01 T02220202  RH  088%=      5-min Rain = 0
KCL2 280959Z 18017G23KT 22/20 A2968 RMK A01 T02230202  RH  088%=      5-min Rain = 0
KCL2 281000Z 18019KT 22/20 A2968 RMK A01 T02230201  RH  088%=      5-min Rain = 0
KCL2 281001Z 18019G24KT 22/20 A2968 RMK A01 T02230201  RH  088%=      5-min Rain = 0
KCL2 281002Z 18018KT 22/20 A2969 RMK A01 T02230201  RH  087%=      5-min Rain = 0
KCL2 281003Z 18019KT 22/20 A2968 RMK A01 T02230201  RH  087%=      5-min Rain = 0
KCL2 281004Z 18016G21KT 22/20 A2968 RMK A01 T02230201  RH  087%=      5-min Rain = 0
KCL2 281005Z 18017G23KT 22/20 A2968 RMK A01 T02230201  RH  087%=      5-min Rain = 0
KCL2 281006Z 18019KT 22/20 A2968 RMK A01 T02230201  RH  087%=      5-min Rain = 0
KCL2 281007Z 19019G25KT 22/20 A2969 RMK A01 T02240201  RH  086%=      5-min Rain = 0
KCL2 281008Z 19016G23KT 22/20 A2969 RMK A01 T02240200  RH  086%=      5-min Rain = 0
KCL2 281009Z 19016KT 23/20 A2969 RMK A01 T02250200  RH  086%=      5-min Rain = 0
KCL2 281010Z 19015KT 23/20 A297 RMK A01 T02250201  RH  086%=      5-min Rain = 0
KCL2 281011Z 20015KT 23/20 A297 RMK A01 T02250200  RH  086%=      5-min Rain = 0
KCL2 281012Z 20014G19KT 23/20 A2971 RMK A01 T02250200  RH  086%=      5-min Rain = 0
KCL2 281013Z 20017G23KT 23/20 A2971 RMK A01 T02250200  RH  086%=      5-min Rain = 0
KCL2 281014Z 20016KT 23/20 A2972 RMK A01 T02250201  RH  086%=      5-min Rain = 0
KCL2 281015Z 20018KT 23/20 A2972 RMK A01 T02250200  RH  086%=      5-min Rain = 0
KCL2 281016Z 19015KT 23/20 A2971 RMK A01 T02260200  RH  085%=      5-min Rain = 0
KCL2 281017Z 18018KT 23/20 A2971 RMK A01 T02260200  RH  085%=      5-min Rain = 0
KCL2 281018Z 19020KT 23/20 A2971 RMK A01 T02270200  RH  085%=      5-min Rain = 0
KCL2 281019Z 18019KT 23/20 A2971 RMK A01 T02270200  RH  085%=      5-min Rain = 0
KCL2 281020Z 19016KT 23/20 A297 RMK A01 T02280200  RH  084%=      5-min Rain = 0
KCL2 281021Z 19014G20KT 23/20 A2971 RMK A01 T02280200  RH  084%=      5-min Rain = 0
KCL2 281022Z 19019KT 23/20 A2971 RMK A01 T02280200  RH  084%=      5-min Rain = 0
KCL2 281023Z 19015KT 23/20 A2971 RMK A01 T02280200  RH  084%=      5-min Rain = 0
KCL2 281024Z 19016G24KT 23/20 A2971 RMK A01 T02280200  RH  084%=      5-min Rain = 0
KCL2 281025Z 20015KT 23/20 A2971 RMK A01 T02280200  RH  084%=      5-min Rain = 0
KCL2 281026Z 20016KT 23/20 A2971 RMK A01 T02280200  RH  084%=      5-min Rain = 0
KCL2 281027Z 19015G21KT 23/20 A2972 RMK A01 T02280200  RH  084%=      5-min Rain = 0
KCL2 281028Z 19017G23KT 23/20 A2971 RMK A01 T02290200  RH  084%=      5-min Rain = 0
KCL2 281029Z 19017G22KT 23/20 A2972 RMK A01 T02290199  RH  083%=      5-min Rain = 0
KCL2 281030Z 19021KT 23/20 A2971 RMK A01 T02290199  RH  083%=      5-min Rain = 0
KCL2 281031Z 19022KT 23/20 A2971 RMK A01 T02290199  RH  083%=      5-min Rain = 0
KCL2 281032Z 19017G25KT 23/20 A2972 RMK A01 T02300199  RH  083%=      5-min Rain = 0
KCL2 281033Z 19015KT 23/20 A2972 RMK A01 T02300199  RH  083%=      5-min Rain = 0
KCL2 281034Z 19012KT 23/20 A2972 RMK A01 T02290199  RH  083%=      5-min Rain = 0
KCL2 281035Z 20015G20KT 23/20 A2972 RMK A01 T02290199  RH  083%=      5-min Rain = 0
KCL2 281036Z 19014G19KT 23/20 A2972 RMK A01 T02290198  RH  083%=      5-min Rain = 0
KCL2 281037Z 20014KT 23/20 A2972 RMK A01 T02290199  RH  083%=      5-min Rain = 0
KCL2 281038Z 19015G20KT 23/20 A2972 RMK A01 T02290199  RH  083%=      5-min Rain = 0
KCL2 281039Z 19014G19KT 23/20 A2972 RMK A01 T02280198  RH  083%=      5-min Rain = 0
KCL2 281040Z 18012KT 23/20 A2972 RMK A01 T02280198  RH  083%=      5-min Rain = 0
KCL2 281041Z 18019G26KT 23/20 A2972 RMK A01 T02290198  RH  083%=      5-min Rain = 0
KCL2 281042Z 19014G19KT 23/20 A2972 RMK A01 T02290198  RH  083%=      5-min Rain = 0
KCL2 281043Z 19018KT 23/20 A2972 RMK A01 T02290198  RH  083%=      5-min Rain = 0
KCL2 281044Z 20013KT 23/20 A2972 RMK A01 T02290198  RH  082%=      5-min Rain = 0
KCL2 281045Z 20012G17KT 23/20 A2972 RMK A01 T02290197  RH  083%=      5-min Rain = 0
KCL2 281046Z 19013G19KT 23/20 A2973 RMK A01 T02280198  RH  083%=      5-min Rain = 0
KCL2 281047Z 20014KT 23/20 A2973 RMK A01 T02280198  RH  083%=      5-min Rain = 0
KCL2 281048Z 19014KT 23/20 A2973 RMK A01 T02280197  RH  083%=      5-min Rain = 0
KCL2 281049Z 19015G20KT 23/20 A2973 RMK A01 T02280197  RH  083%=      5-min Rain = 0
KCL2 281050Z 19012KT 23/20 A2973 RMK A01 T02290197  RH  082%=      5-min Rain = 0
KCL2 281051Z 19009KT 23/20 A2973 RMK A01 T02290198  RH  082%=      5-min Rain = 0
KCL2 281052Z 20009G14KT 23/20 A2973 RMK A01 T02280198  RH  083%=      5-min Rain = 0
KCL2 281053Z 20013KT 23/20 A2972 RMK A01 T02270197  RH  083%=      5-min Rain = 0
KCL2 281054Z 20012G17KT 23/20 A2972 RMK A01 T02280197  RH  083%=      5-min Rain = 0
KCL2 281055Z 18013KT 23/20 A2972 RMK A01 T02280197  RH  083%=      5-min Rain = 0
KCL2 281056Z 19015G20KT 23/20 A2972 RMK A01 T02270196  RH  083%=      5-min Rain = 0
KCL2 281057Z 18013KT 23/20 A2972 RMK A01 T02280196  RH  083%=      5-min Rain = 0
KCL2 281058Z 18012KT 23/20 A2971 RMK A01 T02270196  RH  083%=      5-min Rain = 0
KCL2 281059Z 18011KT 23/20 A2971 RMK A01 T02270196  RH  083%=      5-min Rain = 0
KCL2 281100Z 18010KT 23/20 A2971 RMK A01 T02260196  RH  083%=      5-min Rain = 0
KCL2 281101Z 18010KT 23/20 A2971 RMK A01 T02250196  RH  083%=      5-min Rain = 0
KCL2 281102Z 18014KT 23/20 A2972 RMK A01 T02250196  RH  084%=      5-min Rain = 0
KCL2 281103Z 18014KT 23/20 A2972 RMK A01 T02250196  RH  084%=      5-min Rain = 0
KCL2 281104Z 18015KT 23/20 A2972 RMK A01 T02250195  RH  083%=      5-min Rain = 0
KCL2 281105Z 19013KT 23/20 A2972 RMK A01 T02250196  RH  083%=      5-min Rain = 0
KCL2 281106Z 19012G17KT 23/20 A2972 RMK A01 T02250196  RH  084%=      5-min Rain = 0
KCL2 281107Z 19013KT 22/20 A2972 RMK A01 T02240196  RH  084%=      5-min Rain = 0
KCL2 281108Z 19012KT 22/20 A2972 RMK A01 T02240196  RH  084%=      5-min Rain = 0
KCL2 281109Z 19014KT 22/20 A2972 RMK A01 T02230195  RH  084%=      5-min Rain = 0
KCL2 281110Z 18015KT 22/20 A2972 RMK A01 T02230195  RH  084%=      5-min Rain = 0
KCL2 281111Z 18015KT 22/20 A2972 RMK A01 T02230195  RH  084%=      5-min Rain = 0
KCL2 281112Z 19014KT 22/20 A2972 RMK A01 T02230195  RH  084%=      5-min Rain = 0
KCL2 281113Z 19013G18KT 22/20 A2972 RMK A01 T02230195  RH  084%=      5-min Rain = 0
KCL2 281114Z 18015KT 22/20 A2972 RMK A01 T02230195  RH  084%=      5-min Rain = 0
KCL2 281115Z 19015KT 22/20 A2972 RMK A01 T02230195  RH  084%=      5-min Rain = 0
KCL2 281116Z 18015G20KT 22/20 A2972 RMK A01 T02230195  RH  084%=      5-min Rain = 0
KCL2 281117Z 18016G21KT 22/20 A2972 RMK A01 T02230195  RH  084%=      5-min Rain = 0
KCL2 281118Z 18015KT 22/20 A2972 RMK A01 T02230195  RH  084%=      5-min Rain = 0
KCL2 281119Z 18016KT 22/19 A2972 RMK A01 T02220194  RH  084%=      5-min Rain = 0
KCL2 281120Z 18016KT 22/19 A2972 RMK A01 T02220194  RH  084%=      5-min Rain = 0
KCL2 281121Z 19017KT 22/19 A2972 RMK A01 T02220194  RH  084%=      5-min Rain = 0
KCL2 281122Z 18015KT 22/19 A2972 RMK A01 T02220194  RH  084%=      5-min Rain = 0
KCL2 281123Z 19014KT 22/19 A2972 RMK A01 T02220194  RH  084%=      5-min Rain = 0
KCL2 281124Z 19014G19KT 22/20 A2972 RMK A01 T02220195  RH  084%=      5-min Rain = 0
KCL2 281125Z 19014KT 22/19 A2972 RMK A01 T02220194  RH  084%=      5-min Rain = 0
KCL2 281126Z 19013KT 22/19 A2972 RMK A01 T02220194  RH  084%=      5-min Rain = 0
KCL2 281127Z 18016KT 22/19 A2972 RMK A01 T02210194  RH  084%=      5-min Rain = 0
KCL2 281128Z 18014G20KT 22/19 A2972 RMK A01 T02210194  RH  084%=      5-min Rain = 0
KCL2 281129Z 19016G22KT 22/19 A2972 RMK A01 T02220193  RH  084%=      5-min Rain = 0
KCL2 281130Z 19018KT 22/19 A2972 RMK A01 T02210193  RH  084%=      5-min Rain = 0
KCL2 281131Z 19015KT 22/19 A2972 RMK A01 T02210193  RH  084%=      5-min Rain = 0
KCL2 281132Z 19015G20KT 22/19 A2972 RMK A01 T02220193  RH  084%=      5-min Rain = 0
KCL2 281133Z 19016KT 22/19 A2972 RMK A01 T02220193  RH  084%=      5-min Rain = 0
KCL2 281134Z 19013G18KT 22/19 A2972 RMK A01 T02220193  RH  084%=      5-min Rain = 0
KCL2 281135Z 19013KT 22/19 A2972 RMK A01 T02210193  RH  084%=      5-min Rain = 0
KCL2 281136Z 19014KT 22/19 A2972 RMK A01 T02210193  RH  084%=      5-min Rain = 0
KCL2 281137Z 18015G20KT 22/19 A2972 RMK A01 T02200192  RH  084%=      5-min Rain = 0
KCL2 281138Z 18015G20KT 22/19 A2972 RMK A01 T02200192  RH  084%=      5-min Rain = 0
KCL2 281139Z 19014KT 22/19 A2972 RMK A01 T02200192  RH  084%=      5-min Rain = 0
KCL2 281140Z 19013KT 22/19 A2972 RMK A01 T02200192  RH  084%=      5-min Rain = 0
KCL2 281141Z 19015KT 22/19 A2972 RMK A01 T02200192  RH  084%=      5-min Rain = 0
KCL2 281142Z 19014KT 22/19 A2972 RMK A01 T02200192  RH  084%=      5-min Rain = 0
KCL2 281143Z 18012KT 22/19 A2972 RMK A01 T02200192  RH  084%=      5-min Rain = 0
KCL2 281144Z 19013KT 22/19 A2972 RMK A01 T02200192  RH  084%=      5-min Rain = 0
KCL2 281145Z 18016KT 22/19 A2972 RMK A01 T02190192  RH  084%=      5-min Rain = 0
KCL2 281146Z 18014KT 22/19 A2972 RMK A01 T02190191  RH  084%=      5-min Rain = 0
KCL2 281147Z 18014KT 22/19 A2972 RMK A01 T02200191  RH  084%=      5-min Rain = 0
KCL2 281148Z 18016KT 22/19 A2972 RMK A01 T02200192  RH  084%=      5-min Rain = 0
KCL2 281149Z 18013KT 22/19 A2972 RMK A01 T02200192  RH  084%=      5-min Rain = 0
KCL2 281150Z 17014KT 22/19 A2971 RMK A01 T02190192  RH  084%=      5-min Rain = 0
KCL2 281151Z 17014KT 22/19 A2971 RMK A01 T02190192  RH  085%=      5-min Rain = 0
KCL2 281152Z 18013KT 22/19 A2971 RMK A01 T02190192  RH  085%=      5-min Rain = 0
KCL2 281153Z 17014KT 22/19 A2971 RMK A01 T02180192  RH  085%=      5-min Rain = 0
KCL2 281154Z 18016KT 22/19 A2971 RMK A01 T02180192  RH  085%=      5-min Rain = 0
KCL2 281155Z 18015KT 22/19 A2971 RMK A01 T02180192  RH  085%=      5-min Rain = 0
KCL2 281156Z 18012G18KT 22/19 A2971 RMK A01 T02180192  RH  085%=      5-min Rain = 0
KCL2 281157Z 17016G21KT 22/19 A2971 RMK A01 T02180192  RH  085%=      5-min Rain = 0
KCL2 281158Z 17017KT 22/19 A2971 RMK A01 T02170192  RH  085%=      5-min Rain = 0
KCL2 281159Z 17021KT 22/19 A297 RMK A01 T02170191  RH  085%=      5-min Rain = 0
KCL2 281200Z 16015G20KT 22/19 A2971 RMK A01 T02180191  RH  085%=      5-min Rain = 0
KCL2 281201Z 17013G18KT 22/19 A2971 RMK A01 T02180191  RH  085%=      5-min Rain = 0
KCL2 281202Z 17015KT 22/19 A2971 RMK A01 T02180191  RH  085%=      5-min Rain = 0
KCL2 281203Z 18013G20KT 22/19 A2972 RMK A01 T02180191  RH  085%=      5-min Rain = 0
KCL2 281204Z 17013KT 22/19 A2972 RMK A01 T02180191  RH  085%=      5-min Rain = 0
KCL2 281205Z 18011KT 22/19 A2972 RMK A01 T02170191  RH  085%=      5-min Rain = 0
KCL2 281206Z 18017KT 22/19 A2972 RMK A01 T02170191  RH  085%=      5-min Rain = 0
KCL2 281207Z 19014KT 22/19 A2973 RMK A01 T02170191  RH  085%=      5-min Rain = 0
KCL2 281208Z 18014KT 22/19 A2973 RMK A01 T02170191  RH  085%=      5-min Rain = 0
KCL2 281209Z 18015KT 22/19 A2973 RMK A01 T02170190  RH  085%=      5-min Rain = 0
KCL2 281210Z 18012KT 22/19 A2973 RMK A01 T02170190  RH  085%=      5-min Rain = 0
KCL2 281211Z 18014KT 22/19 A2973 RMK A01 T02170190  RH  085%=      5-min Rain = 0
KCL2 281212Z 18014KT 22/19 A2973 RMK A01 T02170190  RH  085%=      5-min Rain = 0
KCL2 281213Z 18015KT 22/19 A2974 RMK A01 T02170190  RH  085%=      5-min Rain = 0
KCL2 281214Z 18014KT 22/19 A2974 RMK A01 T02170190  RH  085%=      5-min Rain = 0
KCL2 281215Z 18016KT 22/19 A2974 RMK A01 T02170191  RH  085%=      5-min Rain = 0
KCL2 281216Z 18014KT 22/19 A2973 RMK A01 T02170190  RH  085%=      5-min Rain = 0
KCL2 281217Z 18011KT 22/19 A2974 RMK A01 T02170190  RH  085%=      5-min Rain = 0
KCL2 281218Z 17012KT 22/19 A2974 RMK A01 T02170191  RH  085%=      5-min Rain = 0
KCL2 281219Z 18012KT 22/19 A2974 RMK A01 T02170191  RH  085%=      5-min Rain = 0
KCL2 281220Z 18013KT 22/19 A2974 RMK A01 T02160191  RH  085%=      5-min Rain = 0
KCL2 281221Z 18014KT 22/19 A2974 RMK A01 T02160190  RH  085%=      5-min Rain = 0
KCL2 281222Z 18014KT 22/19 A2974 RMK A01 T02160190  RH  085%=      5-min Rain = 0
KCL2 281223Z 18013KT 22/19 A2974 RMK A01 T02170190  RH  085%=      5-min Rain = 0
KCL2 281224Z 17013KT 22/19 A2974 RMK A01 T02170190  RH  085%=      5-min Rain = 0
KCL2 281225Z 18010KT 22/19 A2974 RMK A01 T02160191  RH  085%=      5-min Rain = 0
KCL2 281226Z 18012KT 22/19 A2974 RMK A01 T02170191  RH  085%=      5-min Rain = 0
KCL2 281227Z 17012KT 22/19 A2974 RMK A01 T02160190  RH  085%=      5-min Rain = 0
KCL2 281228Z 18012KT 22/19 A2974 RMK A01 T02170190  RH  085%=      5-min Rain = 0
KCL2 281229Z 18013KT 22/19 A2974 RMK A01 T02170190  RH  085%=      5-min Rain = 0
KCL2 281230Z 18010KT 22/19 A2974 RMK A01 T02170190  RH  085%=      5-min Rain = 0
KCL2 281231Z 18009KT 22/19 A2974 RMK A01 T02180191  RH  085%=      5-min Rain = 0
KCL2 281232Z 18010G15KT 22/19 A2974 RMK A01 T02170191  RH  085%=      5-min Rain = 0
KCL2 281233Z 17012KT 22/19 A2974 RMK A01 T02180191  RH  085%=      5-min Rain = 0
KCL2 281234Z 18014KT 22/19 A2974 RMK A01 T02180190  RH  084%=      5-min Rain = 0
KCL2 281235Z 18012KT 22/19 A2974 RMK A01 T02180190  RH  084%=      5-min Rain = 0
KCL2 281236Z 19012KT 22/19 A2975 RMK A01 T02180190  RH  084%=      5-min Rain = 0
KCL2 281237Z 19013KT 22/19 A2974 RMK A01 T02180190  RH  084%=      5-min Rain = 0
KCL2 281238Z 19011KT 22/19 A2974 RMK A01 T02190190  RH  084%=      5-min Rain = 0
KCL2 281239Z 18013KT 22/19 A2975 RMK A01 T02180190  RH  084%=      5-min Rain = 0
KCL2 281240Z 19012KT 22/19 A2975 RMK A01 T02180190  RH  084%=      5-min Rain = 0
KCL2 281241Z 19013KT 22/19 A2975 RMK A01 T02190190  RH  084%=      5-min Rain = 0
KCL2 281242Z 18014KT 22/19 A2975 RMK A01 T02190189  RH  083%=      5-min Rain = 0
KCL2 281243Z 19014KT 22/19 A2975 RMK A01 T02190189  RH  083%=      5-min Rain = 0
KCL2 281244Z 19014KT 22/19 A2975 RMK A01 T02190190  RH  083%=      5-min Rain = 0
KCL2 281245Z 19013KT 22/19 A2975 RMK A01 T02190190  RH  083%=      5-min Rain = 0
KCL2 281246Z 19010KT 22/19 A2975 RMK A01 T02190190  RH  083%=      5-min Rain = 0
KCL2 281247Z 19011KT 22/19 A2975 RMK A01 T02200190  RH  083%=      5-min Rain = 0
KCL2 281248Z 18010KT 22/19 A2975 RMK A01 T02200190  RH  083%=      5-min Rain = 0
KCL2 281249Z 19009KT 22/19 A2975 RMK A01 T02200190  RH  083%=      5-min Rain = 0
KCL2 281250Z 18008KT 22/19 A2975 RMK A01 T02210191  RH  083%=      5-min Rain = 0
KCL2 281251Z 18008KT 22/19 A2975 RMK A01 T02210192  RH  083%=      5-min Rain = 0
KCL2 281252Z 19011KT 22/19 A2975 RMK A01 T02210191  RH  083%=      5-min Rain = 0
KCL2 281253Z 18010KT 22/19 A2975 RMK A01 T02220191  RH  083%=      5-min Rain = 0
KCL2 281254Z 18013KT 22/19 A2975 RMK A01 T02220191  RH  083%=      5-min Rain = 0
KCL2 281255Z 19013KT 22/19 A2975 RMK A01 T02220190  RH  082%=      5-min Rain = 0
KCL2 281256Z 18010KT 22/19 A2975 RMK A01 T02220190  RH  082%=      5-min Rain = 0
KCL2 281257Z 19011KT 22/19 A2975 RMK A01 T02220190  RH  083%=      5-min Rain = 0
KCL2 281258Z 19012KT 22/19 A2975 RMK A01 T02220190  RH  082%=      5-min Rain = 0
KCL2 281259Z 18012G17KT 22/19 A2975 RMK A01 T02220191  RH  082%=      5-min Rain = 0
KCL2 281300Z 18013KT 22/19 A2975 RMK A01 T02220190  RH  082%=      5-min Rain = 0
KCL2 281301Z 18013KT 22/19 A2975 RMK A01 T02220190  RH  082%=      5-min Rain = 0
KCL2 281302Z 18013KT 22/19 A2975 RMK A01 T02230190  RH  082%=      5-min Rain = 0
KCL2 281303Z 18012KT 22/19 A2975 RMK A01 T02230191  RH  082%=      5-min Rain = 0
KCL2 281304Z 18011KT 22/19 A2974 RMK A01 T02230191  RH  082%=      5-min Rain = 0
KCL2 281305Z 19012KT 22/19 A2975 RMK A01 T02240191  RH  082%=      5-min Rain = 0
KCL2 281306Z 18013G18KT 22/19 A2975 RMK A01 T02240192  RH  082%=      5-min Rain = 0
KCL2 281307Z 18015KT 22/19 A2974 RMK A01 T02240190  RH  081%=      5-min Rain = 0
KCL2 281308Z 19012KT 22/19 A2975 RMK A01 T02240190  RH  081%=      5-min Rain = 0
KCL2 281309Z 18011G16KT 23/19 A2975 RMK A01 T02250192  RH  082%=      5-min Rain = 0
KCL2 281310Z 18014KT 23/19 A2975 RMK A01 T02250191  RH  081%=      5-min Rain = 0
KCL2 281311Z 18012KT 23/19 A2974 RMK A01 T02250191  RH  081%=      5-min Rain = 0
KCL2 281312Z 18011KT 23/19 A2975 RMK A01 T02250191  RH  081%=      5-min Rain = 0
KCL2 281313Z 18013G18KT 23/19 A2975 RMK A01 T02260191  RH  081%=      5-min Rain = 0
KCL2 281314Z 19013KT 23/19 A2975 RMK A01 T02260191  RH  080%=      5-min Rain = 0
KCL2 281315Z 18018KT 23/19 A2975 RMK A01 T02260190  RH  080%=      5-min Rain = 0
KCL2 281316Z 19016KT 23/19 A2975 RMK A01 T02260190  RH  080%=      5-min Rain = 0
KCL2 281317Z 19014KT 23/19 A2975 RMK A01 T02260191  RH  080%=      5-min Rain = 0
KCL2 281318Z 19012KT 23/19 A2975 RMK A01 T02260190  RH  080%=      5-min Rain = 0
KCL2 281319Z 19012KT 23/19 A2975 RMK A01 T02270191  RH  080%=      5-min Rain = 0
KCL2 281320Z 19013KT 23/19 A2975 RMK A01 T02270191  RH  080%=      5-min Rain = 0
KCL2 281321Z 19015KT 23/19 A2975 RMK A01 T02280191  RH  080%=      5-min Rain = 0
KCL2 281322Z 19012KT 23/19 A2975 RMK A01 T02280191  RH  080%=      5-min Rain = 0
KCL2 281323Z 19012KT 23/19 A2975 RMK A01 T02280192  RH  080%=      5-min Rain = 0
KCL2 281324Z 19013KT 23/19 A2975 RMK A01 T02290191  RH  079%=      5-min Rain = 0
KCL2 281325Z 20013KT 23/19 A2975 RMK A01 T02290192  RH  080%=      5-min Rain = 0
KCL2 281326Z 19013KT 23/19 A2975 RMK A01 T02290191  RH  079%=      5-min Rain = 0
KCL2 281327Z 19017G22KT 23/19 A2975 RMK A01 T02290191  RH  079%=      5-min Rain = 0
KCL2 281328Z 19014KT 23/19 A2975 RMK A01 T02290191  RH  079%=      5-min Rain = 0
KCL2 281329Z 19011KT 23/19 A2975 RMK A01 T02290192  RH  080%=      5-min Rain = 0
KCL2 281330Z 19010G15KT 23/19 A2975 RMK A01 T02300193  RH  080%=      5-min Rain = 0
KCL2 281331Z 19014KT 23/19 A2975 RMK A01 T02310192  RH  079%=      5-min Rain = 0
KCL2 281332Z 20012KT 23/19 A2975 RMK A01 T02310193  RH  079%=      5-min Rain = 0
KCL2 281333Z 20012KT 23/19 A2975 RMK A01 T02320193  RH  079%=      5-min Rain = 0
KCL2 281334Z 20010KT 23/19 A2975 RMK A01 T02320193  RH  079%=      5-min Rain = 0
KCL2 281335Z 20014KT 23/19 A2975 RMK A01 T02330194  RH  079%=      5-min Rain = 0
KCL2 281336Z 19014KT 23/19 A2975 RMK A01 T02330193  RH  078%=      5-min Rain = 0
KCL2 281337Z 20013G19KT 23/19 A2975 RMK A01 T02330193  RH  078%=      5-min Rain = 0
KCL2 281338Z 19017KT 23/19 A2975 RMK A01 T02320192  RH  078%=      5-min Rain = 0
KCL2 281339Z 20014KT 23/19 A2975 RMK A01 T02320192  RH  078%=      5-min Rain = 0
KCL2 281340Z 19014KT 23/19 A2975 RMK A01 T02320193  RH  079%=      5-min Rain = 0
KCL2 281341Z 20014KT 23/19 A2975 RMK A01 T02330193  RH  078%=      5-min Rain = 0
KCL2 281342Z 20014G19KT 23/19 A2975 RMK A01 T02330193  RH  078%=      5-min Rain = 0
KCL2 281343Z 20014G19KT 23/19 A2975 RMK A01 T02330192  RH  078%=      5-min Rain = 0
KCL2 281344Z 20014KT 23/19 A2975 RMK A01 T02330193  RH  078%=      5-min Rain = 0
KCL2 281345Z 19015KT 23/19 A2975 RMK A01 T02340193  RH  078%=      5-min Rain = 0
KCL2 281346Z 20015KT 23/19 A2975 RMK A01 T02340194  RH  078%=      5-min Rain = 0
KCL2 281347Z 20015KT 24/19 A2975 RMK A01 T02350193  RH  077%=      5-min Rain = 0
KCL2 281348Z 19016KT 23/19 A2975 RMK A01 T02340193  RH  078%=      5-min Rain = 0
KCL2 281349Z 19014KT 24/19 A2975 RMK A01 T02350193  RH  078%=      5-min Rain = 0
KCL2 281350Z 20013KT 24/19 A2975 RMK A01 T02360194  RH  078%=      5-min Rain = 0
KCL2 281351Z 20014KT 24/20 A2975 RMK A01 T02360196  RH  078%=      5-min Rain = 0
KCL2 281352Z 19014KT 24/20 A2975 RMK A01 T02370195  RH  077%=      5-min Rain = 0
KCL2 281353Z 19015KT 24/20 A2975 RMK A01 T02370195  RH  077%=      5-min Rain = 0
KCL2 281354Z 20014KT 24/20 A2975 RMK A01 T02380195  RH  077%=      5-min Rain = 0
KCL2 281355Z 19016G22KT 24/20 A2975 RMK A01 T02370195  RH  077%=      5-min Rain = 0
KCL2 281356Z 20015KT 24/20 A2975 RMK A01 T02370195  RH  077%=      5-min Rain = 0
KCL2 281357Z 20019KT 24/19 A2975 RMK A01 T02370193  RH  076%=      5-min Rain = 0
KCL2 281358Z 19016KT 24/19 A2975 RMK A01 T02370194  RH  077%=      5-min Rain = 0
KCL2 281359Z 19014KT 24/20 A2975 RMK A01 T02370195  RH  077%=      5-min Rain = 0
KCL2 281400Z 19013KT 24/20 A2975 RMK A01 T02380195  RH  077%=      5-min Rain = 0
KCL2 281401Z 20016KT 24/20 A2975 RMK A01 T02390195  RH  077%=      5-min Rain = 0
KCL2 281402Z 19015KT 24/20 A2975 RMK A01 T02390195  RH  076%=      5-min Rain = 0
KCL2 281403Z 20012KT 24/20 A2975 RMK A01 T02390196  RH  077%=      5-min Rain = 0
KCL2 281404Z 19013KT 24/20 A2975 RMK A01 T02390196  RH  077%=      5-min Rain = 0
KCL2 281405Z 19012KT 24/20 A2975 RMK A01 T02390197  RH  077%=      5-min Rain = 0
KCL2 281406Z 19014KT 24/20 A2975 RMK A01 T02410197  RH  076%=      5-min Rain = 0
KCL2 281407Z 19016KT 24/20 A2975 RMK A01 T02410196  RH  076%=      5-min Rain = 0
KCL2 281408Z 20014KT 24/20 A2975 RMK A01 T02410197  RH  076%=      5-min Rain = 0
KCL2 281409Z 20013KT 24/20 A2975 RMK A01 T02410197  RH  077%=      5-min Rain = 0
KCL2 281410Z 20014KT 24/20 A2975 RMK A01 T02410197  RH  076%=      5-min Rain = 0
KCL2 281411Z 19016KT 24/20 A2975 RMK A01 T02410197  RH  076%=      5-min Rain = 0
KCL2 281412Z 20017KT 24/20 A2975 RMK A01 T02410196  RH  076%=      5-min Rain = 0
KCL2 281413Z 20016KT 24/20 A2975 RMK A01 T02410196  RH  076%=      5-min Rain = 0
KCL2 281414Z 19014KT 24/20 A2975 RMK A01 T02410196  RH  076%=      5-min Rain = 0
KCL2 281415Z 20014KT 24/20 A2975 RMK A01 T02410198  RH  076%=      5-min Rain = 0
KCL2 281416Z 20016KT 24/20 A2975 RMK A01 T02420196  RH  076%=      5-min Rain = 0
KCL2 281417Z 19016KT 24/20 A2975 RMK A01 T02410197  RH  076%=      5-min Rain = 0
KCL2 281418Z 19018KT 24/20 A2975 RMK A01 T02410196  RH  076%=      5-min Rain = 0
KCL2 281419Z 19018KT 24/20 A2974 RMK A01 T02420196  RH  076%=      5-min Rain = 0
KCL2 281420Z 19015G21KT 24/20 A2974 RMK A01 T02410196  RH  076%=      5-min Rain = 0
KCL2 281421Z 18013KT 24/20 A2975 RMK A01 T02420197  RH  076%=      5-min Rain = 0
KCL2 281422Z 18019G24KT 24/20 A2974 RMK A01 T02430197  RH  076%=      5-min Rain = 0
KCL2 281423Z 19017KT 24/20 A2974 RMK A01 T02430196  RH  075%=      5-min Rain = 0
KCL2 281424Z 19012G17KT 24/20 A2975 RMK A01 T02430199  RH  077%=      5-min Rain = 0
KCL2 281425Z 19015G20KT 24/20 A2974 RMK A01 T02430198  RH  076%=      5-min Rain = 0
KCL2 281426Z 19014KT 24/20 A2974 RMK A01 T02430198  RH  076%=      5-min Rain = 0
KCL2 281427Z 19013KT 24/20 A2975 RMK A01 T02440199  RH  076%=      5-min Rain = 0
KCL2 281428Z 19017G22KT 24/20 A2975 RMK A01 T02430197  RH  075%=      5-min Rain = 0
KCL2 281429Z 18017G25KT 24/20 A2975 RMK A01 T02440197  RH  075%=      5-min Rain = 0
KCL2 281430Z 18018KT 24/20 A2975 RMK A01 T02440196  RH  075%=      5-min Rain = 0
KCL2 281431Z 19017G24KT 24/20 A2975 RMK A01 T02440197  RH  075%=      5-min Rain = 0
KCL2 281432Z 19017KT 24/20 A2975 RMK A01 T02440196  RH  075%=      5-min Rain = 0
KCL2 281433Z 20018KT 24/20 A2975 RMK A01 T02440197  RH  075%=      5-min Rain = 0
KCL2 281434Z 19017KT 24/20 A2975 RMK A01 T02440197  RH  075%=      5-min Rain = 0
KCL2 281435Z 19017G22KT 24/20 A2974 RMK A01 T02440198  RH  075%=      5-min Rain = 0
KCL2 281436Z 20017KT 24/20 A2975 RMK A01 T02440198  RH  075%=      5-min Rain = 0
KCL2 281437Z 19015KT 25/20 A2975 RMK A01 T02450198  RH  075%=      5-min Rain = 0
KCL2 281438Z 19015KT 25/20 A2975 RMK A01 T02460198  RH  075%=      5-min Rain = 0
KCL2 281439Z 19013KT 25/20 A2975 RMK A01 T02460200  RH  075%=      5-min Rain = 0
KCL2 281440Z 20017G22KT 25/20 A2975 RMK A01 T02480199  RH  074%=      5-min Rain = 0
KCL2 281441Z 18016G21KT 25/20 A2975 RMK A01 T02480200  RH  075%=      5-min Rain = 0
KCL2 281442Z 18018KT 25/20 A2975 RMK A01 T02480199  RH  074%=      5-min Rain = 0
KCL2 281443Z 19016G21KT 25/20 A2975 RMK A01 T02480198  RH  074%=      5-min Rain = 0
KCL2 281444Z 20015G20KT 25/20 A2975 RMK A01 T02470199  RH  074%=      5-min Rain = 0
KCL2 281445Z 19016KT 25/20 A2975 RMK A01 T02480198  RH  074%=      5-min Rain = 0
KCL2 281446Z 19014KT 25/20 A2975 RMK A01 T02480199  RH  074%=      5-min Rain = 0
KCL2 281447Z 20015KT 25/20 A2975 RMK A01 T02480199  RH  074%=      5-min Rain = 0
KCL2 281448Z 19016KT 25/20 A2975 RMK A01 T02480200  RH  074%=      5-min Rain = 0
KCL2 281449Z 19016KT 25/20 A2975 RMK A01 T02490198  RH  074%=      5-min Rain = 0
KCL2 281450Z 19015KT 25/20 A2975 RMK A01 T02480199  RH  074%=      5-min Rain = 0
KCL2 281451Z 20012KT 25/20 A2975 RMK A01 T02470200  RH  075%=      5-min Rain = 0
KCL2 281452Z 19014G19KT 25/20 A2976 RMK A01 T02460200  RH  075%=      5-min Rain = 0
KCL2 281453Z 20012KT 25/20 A2976 RMK A01 T02470200  RH  075%=      5-min Rain = 0
KCL2 281454Z 20011KT 25/20 A2976 RMK A01 T02490201  RH  075%=      5-min Rain = 0
KCL2 281455Z 19012KT 25/20 A2976 RMK A01 T02490200  RH  074%=      5-min Rain = 0
KCL2 281456Z 19011KT 25/20 A2976 RMK A01 T02490202  RH  075%=      5-min Rain = 0
KCL2 281457Z 21013KT 25/20 A2976 RMK A01 T02490200  RH  074%=      5-min Rain = 0
KCL2 281458Z 20014G19KT 25/20 A2976 RMK A01 T02480200  RH  075%=      5-min Rain = 0
KCL2 281459Z 20014G20KT 25/20 A2976 RMK A01 T02470199  RH  075%=      5-min Rain = 0
KCL2 281500Z 19011G17KT 25/20 A2977 RMK A01 T02470201  RH  075%=      5-min Rain = 0
KCL2 281501Z 20015KT 25/20 A2977 RMK A01 T02470200  RH  075%=      5-min Rain = 0
KCL2 281502Z 19014KT 25/20 A2977 RMK A01 T02460199  RH  075%=      5-min Rain = 0
KCL2 281503Z 19017KT 25/20 A2977 RMK A01 T02450197  RH  075%=      5-min Rain = 0
KCL2 281504Z 20013KT 24/20 A2977 RMK A01 T02440198  RH  075%=      5-min Rain = 0
KCL2 281505Z 20013KT 24/20 A2977 RMK A01 T02440199  RH  076%=      5-min Rain = 0
KCL2 281506Z 19012G17KT 24/20 A2977 RMK A01 T02440198  RH  076%=      5-min Rain = 0
KCL2 281507Z 19017KT 24/20 A2977 RMK A01 T02440198  RH  075%=      5-min Rain = 0
KCL2 281508Z 19016KT 24/20 A2977 RMK A01 T02440197  RH  075%=      5-min Rain = 0
KCL2 281509Z 20015G20KT 24/20 A2977 RMK A01 T02440197  RH  075%=      5-min Rain = 0
KCL2 281510Z 19013KT 24/20 A2977 RMK A01 T02440197  RH  075%=      5-min Rain = 0
KCL2 281511Z 20012KT 24/20 A2977 RMK A01 T02440198  RH  076%=      5-min Rain = 0
KCL2 281512Z 19010KT 24/20 A2977 RMK A01 T02440199  RH  076%=      5-min Rain = 0
KCL2 281513Z 19011KT 25/20 A2977 RMK A01 T02450200  RH  076%=      5-min Rain = 0
KCL2 281514Z 20011KT 25/20 A2977 RMK A01 T02450201  RH  076%=      5-min Rain = 0
KCL2 281515Z 20016KT 25/20 A2977 RMK A01 T02460198  RH  075%=      5-min Rain = 0
KCL2 281516Z 20010KT 25/20 A2977 RMK A01 T02450199  RH  075%=      5-min Rain = 0
KCL2 281517Z 19013G18KT 25/20 A2977 RMK A01 T02450199  RH  076%=      5-min Rain = 0
KCL2 281518Z 19012KT 25/20 A2977 RMK A01 T02450199  RH  075%=      5-min Rain = 0
KCL2 281519Z 19015KT 25/20 A2977 RMK A01 T02460200  RH  076%=      5-min Rain = 0
KCL2 281520Z 19012KT 25/20 A2977 RMK A01 T02460199  RH  075%=      5-min Rain = 0
KCL2 281521Z 19013KT 25/20 A2977 RMK A01 T02460199  RH  075%=      5-min Rain = 0
KCL2 281522Z 19013KT 25/20 A2977 RMK A01 T02470200  RH  075%=      5-min Rain = 0
KCL2 281523Z 20016G22KT 25/20 A2977 RMK A01 T02480200  RH  075%=      5-min Rain = 0
KCL2 281524Z 21018KT 25/20 A2977 RMK A01 T02480199  RH  074%=      5-min Rain = 0
KCL2 281525Z 20016KT 25/20 A2977 RMK A01 T02480199  RH  074%=      5-min Rain = 0
KCL2 281526Z 20012KT 25/20 A2977 RMK A01 T02480201  RH  075%=      5-min Rain = 0
KCL2 281527Z 18012KT 25/20 A2977 RMK A01 T02500203  RH  075%=      5-min Rain = 0
KCL2 281528Z 19017G23KT 25/20 A2976 RMK A01 T02520202  RH  074%=      5-min Rain = 0
KCL2 281529Z 19017G22KT 25/20 A2976 RMK A01 T02510199  RH  073%=      5-min Rain = 0
KCL2 281530Z 20018KT 25/20 A2976 RMK A01 T02490198  RH  073%=      5-min Rain = 0
KCL2 281531Z 19017KT 25/20 A2976 RMK A01 T02480199  RH  074%=      5-min Rain = 0
KCL2 281532Z 19016KT 25/20 A2976 RMK A01 T02480199  RH  074%=      5-min Rain = 0
KCL2 281533Z 20015G20KT 25/20 A2976 RMK A01 T02470198  RH  074%=      5-min Rain = 0
KCL2 281534Z 20012KT 25/20 A2976 RMK A01 T02480201  RH  075%=      5-min Rain = 0
KCL2 281535Z 20011KT 25/20 A2976 RMK A01 T02500202  RH  075%=      5-min Rain = 0
KCL2 281536Z 19018KT 25/20 A2976 RMK A01 T02510201  RH  074%=      5-min Rain = 0
KCL2 281537Z 20015KT 25/20 A2976 RMK A01 T02510200  RH  073%=      5-min Rain = 0
KCL2 281538Z 20016KT 25/20 A2976 RMK A01 T02520201  RH  074%=      5-min Rain = 0
KCL2 281539Z 20013KT 25/20 A2976 RMK A01 T02530201  RH  073%=      5-min Rain = 0
KCL2 281540Z 20014G20KT 25/20 A2976 RMK A01 T02540202  RH  073%=      5-min Rain = 0
KCL2 281541Z 21014G19KT 25/20 A2976 RMK A01 T02540202  RH  073%=      5-min Rain = 0
KCL2 281542Z 20012KT 26/20 A2976 RMK A01 T02550203  RH  073%=      5-min Rain = 0
KCL2 281543Z 20015KT 26/20 A2976 RMK A01 T02550203  RH  073%=      5-min Rain = 0
KCL2 281544Z 20012KT 26/21 A2976 RMK A01 T02560205  RH  073%=      5-min Rain = 0
KCL2 281545Z 21015KT 26/20 A2976 RMK A01 T02580204  RH  072%=      5-min Rain = 0
KCL2 281546Z 20015G21KT 26/20 A2976 RMK A01 T02580203  RH  072%=      5-min Rain = 0
KCL2 281547Z 20016G22KT 26/20 A2976 RMK A01 T02580202  RH  071%=      5-min Rain = 0
KCL2 281548Z 20014KT 26/20 A2976 RMK A01 T02570203  RH  072%=      5-min Rain = 0
KCL2 281549Z 20016G22KT 26/20 A2976 RMK A01 T02580203  RH  072%=      5-min Rain = 0
KCL2 281550Z 21014KT 26/20 A2976 RMK A01 T02570202  RH  071%=      5-min Rain = 0
KCL2 281551Z 22015KT 26/20 A2976 RMK A01 T02560203  RH  073%=      5-min Rain = 0
KCL2 281552Z 22015KT 26/20 A2976 RMK A01 T02550202  RH  073%=      5-min Rain = 0
KCL2 281553Z 21013KT 26/20 A2976 RMK A01 T02550203  RH  073%=      5-min Rain = 0
KCL2 281554Z 19015KT 26/20 A2976 RMK A01 T02550204  RH  073%=      5-min Rain = 0
KCL2 281555Z 20016KT 26/20 A2976 RMK A01 T02550202  RH  072%=      5-min Rain = 0
KCL2 281556Z 20015KT 26/20 A2976 RMK A01 T02560201  RH  072%=      5-min Rain = 0
KCL2 281557Z 20012KT 25/20 A2976 RMK A01 T02540201  RH  072%=      5-min Rain = 0
KCL2 281558Z 19013KT 25/20 A2976 RMK A01 T02540203  RH  073%=      5-min Rain = 0
KCL2 281559Z 21016KT 26/20 A2976 RMK A01 T02550204  RH  073%=      5-min Rain = 0
KCL2 281600Z 21018KT 26/20 A2976 RMK A01 T02580203  RH  072%=      5-min Rain = 0
KCL2 281601Z 21016KT 26/20 A2976 RMK A01 T02580201  RH  071%=      5-min Rain = 0
KCL2 281602Z 21014KT 26/20 A2976 RMK A01 T02580203  RH  072%=      5-min Rain = 0
KCL2 281603Z 19011KT 26/21 A2976 RMK A01 T02600207  RH  073%=      5-min Rain = 0
KCL2 281604Z 21013KT 26/21 A2976 RMK A01 T02630206  RH  071%=      5-min Rain = 0
KCL2 281605Z 21011KT 26/21 A2976 RMK A01 T02630205  RH  071%=      5-min Rain = 0
KCL2 281606Z 19011G16KT 26/21 A2976 RMK A01 T02630206  RH  071%=      5-min Rain = 0
KCL2 281607Z 19012KT 26/21 A2976 RMK A01 T02640206  RH  071%=      5-min Rain = 0
KCL2 281608Z 19013KT 26/21 A2976 RMK A01 T02640206  RH  070%=      5-min Rain = 0
KCL2 281609Z 20011KT 26/21 A2976 RMK A01 T02630206  RH  071%=      5-min Rain = 0
KCL2 281610Z 20011KT 26/21 A2976 RMK A01 T02630207  RH  071%=      5-min Rain = 0
KCL2 281611Z 20014KT 27/21 A2976 RMK A01 T02650208  RH  071%=      5-min Rain = 0
KCL2 281612Z 21018KT 27/20 A2975 RMK A01 T02650203  RH  068%=      5-min Rain = 0
KCL2 281613Z 20014KT 26/20 A2975 RMK A01 T02630201  RH  069%=      5-min Rain = 0
KCL2 281614Z 20013KT 26/21 A2976 RMK A01 T02630205  RH  070%=      5-min Rain = 0
KCL2 281615Z 21015KT 27/21 A2976 RMK A01 T02650205  RH  070%=      5-min Rain = 0
KCL2 281616Z 21013KT 27/21 A2976 RMK A01 T02660205  RH  069%=      5-min Rain = 0
KCL2 281617Z 21014KT 27/20 A2976 RMK A01 T02660204  RH  069%=      5-min Rain = 0
KCL2 281618Z 20015KT 27/21 A2976 RMK A01 T02660206  RH  070%=      5-min Rain = 0
KCL2 281619Z 19012KT 27/21 A2976 RMK A01 T02660207  RH  070%=      5-min Rain = 0
KCL2 281620Z 19013KT 27/21 A2975 RMK A01 T02680209  RH  070%=      5-min Rain = 0
KCL2 281621Z 19018KT 27/21 A2975 RMK A01 T02690205  RH  068%=      5-min Rain = 0
KCL2 281622Z 20017G22KT 27/20 A2975 RMK A01 T02690204  RH  067%=      5-min Rain = 0
KCL2 281623Z 20017KT 27/21 A2975 RMK A01 T02680205  RH  068%=      5-min Rain = 0
KCL2 281624Z 21018G23KT 27/20 A2975 RMK A01 T02670203  RH  068%=      5-min Rain = 0
KCL2 281625Z 21017KT 27/20 A2975 RMK A01 T02660204  RH  069%=      5-min Rain = 0
KCL2 281626Z 19013KT 27/20 A2975 RMK A01 T02650204  RH  069%=      5-min Rain = 0
KCL2 281627Z 20014KT 27/21 A2975 RMK A01 T02660206  RH  069%=      5-min Rain = 0
KCL2 281628Z 18015KT 27/20 A2975 RMK A01 T02670204  RH  068%=      5-min Rain = 0
KCL2 281629Z 20011KT 27/21 A2975 RMK A01 T02670206  RH  069%=      5-min Rain = 0
KCL2 281630Z 22012KT 27/21 A2975 RMK A01 T02690211  RH  070%=      5-min Rain = 0
KCL2 281631Z 22013KT 27/21 A2975 RMK A01 T02720207  RH  068%=      5-min Rain = 0
KCL2 281632Z 22012KT 27/21 A2975 RMK A01 T02710209  RH  069%=      5-min Rain = 0
KCL2 281633Z 22010KT 27/21 A2975 RMK A01 T02710208  RH  069%=      5-min Rain = 0
KCL2 281634Z 20008KT 27/21 A2975 RMK A01 T02720211  RH  070%=      5-min Rain = 0
KCL2 281635Z 22013G18KT 28/21 A2975 RMK A01 T02750211  RH  068%=      5-min Rain = 0
KCL2 281636Z 22013KT 27/20 A2975 RMK A01 T02740204  RH  066%=      5-min Rain = 0
KCL2 281637Z 22011KT 27/21 A2975 RMK A01 T02710208  RH  068%=      5-min Rain = 0
KCL2 281638Z 21016KT 27/21 A2975 RMK A01 T02720206  RH  067%=      5-min Rain = 0
KCL2 281639Z 21013KT 27/21 A2975 RMK A01 T02720205  RH  067%=      5-min Rain = 0
KCL2 281640Z 21013G18KT 27/21 A2975 RMK A01 T02740208  RH  068%=      5-min Rain = 0
KCL2 281641Z 21015KT 28/21 A2975 RMK A01 T02750205  RH  066%=      5-min Rain = 0
KCL2 281642Z 22014KT 28/21 A2975 RMK A01 T02750206  RH  066%=      5-min Rain = 0
KCL2 281643Z 22018KT 28/20 A2975 RMK A01 T02760203  RH  065%=      5-min Rain = 0
KCL2 281644Z 22014KT 27/20 A2975 RMK A01 T02740203  RH  065%=      5-min Rain = 0
KCL2 281645Z 22014KT 27/21 A2975 RMK A01 T02740207  RH  067%=      5-min Rain = 0
KCL2 281646Z 22012KT 28/21 A2975 RMK A01 T02750207  RH  066%=      5-min Rain = 0
KCL2 281647Z 22013KT 28/21 A2975 RMK A01 T02760206  RH  066%=      5-min Rain = 0
KCL2 281648Z 22013KT 28/21 A2975 RMK A01 T02750208  RH  067%=      5-min Rain = 0
KCL2 281649Z 20014KT 28/21 A2975 RMK A01 T02750206  RH  066%=      5-min Rain = 0
KCL2 281650Z 21012KT 28/21 A2975 RMK A01 T02750208  RH  067%=      5-min Rain = 0
KCL2 281651Z 21014KT 28/21 A2976 RMK A01 T02760209  RH  067%=      5-min Rain = 0
KCL2 281652Z 21013KT 28/21 A2976 RMK A01 T02780207  RH  065%=      5-min Rain = 0
KCL2 281653Z 23012G17KT 28/21 A2976 RMK A01 T02790209  RH  066%=      5-min Rain = 0
KCL2 281654Z 21011KT 28/21 A2976 RMK A01 T02800211  RH  066%=      5-min Rain = 0
KCL2 281655Z 22014KT 28/21 A2976 RMK A01 T02790207  RH  065%=      5-min Rain = 0
KCL2 281656Z 22016G21KT 28/21 A2976 RMK A01 T02750205  RH  066%=      5-min Rain = 0
KCL2 281657Z 21016KT 27/21 A2976 RMK A01 T02730208  RH  067%=      5-min Rain = 0
KCL2 281658Z 21016KT 27/21 A2976 RMK A01 T02740207  RH  067%=      5-min Rain = 0
KCL2 281659Z 20017KT 28/21 A2976 RMK A01 T02750205  RH  066%=      5-min Rain = 0
KCL2 281700Z 19016KT 28/21 A2976 RMK A01 T02750205  RH  065%=      5-min Rain = 0
KCL2 281701Z 20015KT 28/21 A2976 RMK A01 T02750206  RH  066%=      5-min Rain = 0
KCL2 281702Z 21014KT 28/21 A2976 RMK A01 T02780209  RH  066%=      5-min Rain = 0
KCL2 281703Z 20013KT 28/21 A2976 RMK A01 T02780206  RH  065%=      5-min Rain = 0
KCL2 281704Z 22013KT 28/21 A2975 RMK A01 T02770208  RH  066%=      5-min Rain = 0
KCL2 281705Z 21013KT 28/21 A2975 RMK A01 T02760207  RH  066%=      5-min Rain = 0
KCL2 281706Z 21013KT 28/21 A2975 RMK A01 T02750209  RH  067%=      5-min Rain = 0
KCL2 281707Z 23011G16KT 28/21 A2975 RMK A01 T02800214  RH  067%=      5-min Rain = 0
KCL2 281708Z 24014KT 28/21 A2975 RMK A01 T02830208  RH  064%=      5-min Rain = 0
KCL2 281709Z 24017KT 28/21 A2975 RMK A01 T02830206  RH  063%=      5-min Rain = 0
KCL2 281710Z 23015KT 28/21 A2975 RMK A01 T02820206  RH  063%=      5-min Rain = 0
KCL2 281711Z 24012KT 28/21 A2975 RMK A01 T02810207  RH  064%=      5-min Rain = 0
KCL2 281712Z 22013KT 28/21 A2975 RMK A01 T02810207  RH  064%=      5-min Rain = 0
KCL2 281713Z 21008KT 28/21 A2975 RMK A01 T02810211  RH  066%=      5-min Rain = 0
KCL2 281714Z 23012KT 28/21 A2975 RMK A01 T02830214  RH  066%=      5-min Rain = 0
KCL2 281715Z 23013KT 28/21 A2975 RMK A01 T02840209  RH  064%=      5-min Rain = 0
KCL2 281716Z 22012KT 28/21 A2975 RMK A01 T02840210  RH  064%=      5-min Rain = 0
KCL2 281717Z 22013KT 28/21 A2975 RMK A01 T02830210  RH  065%=      5-min Rain = 0
KCL2 281718Z 23014KT 28/20 A2975 RMK A01 T02810203  RH  063%=      5-min Rain = 0
KCL2 281719Z 23014KT 28/20 A2975 RMK A01 T02790204  RH  064%=      5-min Rain = 0
KCL2 281720Z 23015KT 28/20 A2975 RMK A01 T02790204  RH  064%=      5-min Rain = 0
KCL2 281721Z 23013KT 28/20 A2975 RMK A01 T02790203  RH  063%=      5-min Rain = 0
KCL2 281722Z 21011KT 28/21 A2975 RMK A01 T02800207  RH  064%=      5-min Rain = 0
KCL2 281723Z 21012KT 28/21 A2975 RMK A01 T02810208  RH  064%=      5-min Rain = 0
KCL2 281724Z 20014KT 28/21 A2975 RMK A01 T02820206  RH  063%=      5-min Rain = 0
KCL2 281725Z 21012KT 28/21 A2975 RMK A01 T02820209  RH  064%=      5-min Rain = 0
KCL2 281726Z 22011KT 28/21 A2975 RMK A01 T02840213  RH  065%=      5-min Rain = 0
KCL2 281727Z 22011G16KT 29/21 A2975 RMK A01 T02860210  RH  063%=      5-min Rain = 0
KCL2 281728Z 22011KT 29/21 A2975 RMK A01 T02870211  RH  063%=      5-min Rain = 0
KCL2 281729Z 21010KT 29/21 A2975 RMK A01 T02870210  RH  063%=      5-min Rain = 0
KCL2 281730Z 22014KT 29/21 A2975 RMK A01 T02870207  RH  062%=      5-min Rain = 0
KCL2 281731Z 22013KT 28/21 A2975 RMK A01 T02840206  RH  062%=      5-min Rain = 0
KCL2 281732Z 22013KT 28/21 A2975 RMK A01 T02820207  RH  064%=      5-min Rain = 0
KCL2 281733Z 21012KT 28/21 A2975 RMK A01 T02820211  RH  065%=      5-min Rain = 0
KCL2 281734Z 20011KT 28/21 A2975 RMK A01 T02840209  RH  064%=      5-min Rain = 0
KCL2 281735Z 21009KT 29/21 A2975 RMK A01 T02850212  RH  065%=      5-min Rain = 0
KCL2 281736Z 22009KT 29/21 A2975 RMK A01 T02860211  RH  064%=      5-min Rain = 0
KCL2 281737Z 20012G18KT 29/21 A2975 RMK A01 T02870211  RH  063%=      5-min Rain = 0
KCL2 281738Z 20015KT 29/21 A2975 RMK A01 T02880210  RH  063%=      5-min Rain = 0
KCL2 281739Z 23014KT 29/21 A2975 RMK A01 T02880208  RH  062%=      5-min Rain = 0
KCL2 281740Z 22012KT 29/21 A2975 RMK A01 T02890210  RH  062%=      5-min Rain = 0
KCL2 281741Z 22012KT 29/21 A2975 RMK A01 T02900210  RH  062%=      5-min Rain = 0
KCL2 281742Z 23012KT 29/21 A2975 RMK A01 T02890207  RH  061%=      5-min Rain = 0
KCL2 281743Z 24014KT 29/21 A2975 RMK A01 T02880206  RH  061%=      5-min Rain = 0
KCL2 281744Z 23013KT 29/21 A2975 RMK A01 T02880208  RH  062%=      5-min Rain = 0
KCL2 281745Z 23009KT 29/21 A2975 RMK A01 T02890209  RH  062%=      5-min Rain = 0
KCL2 281746Z 22011KT 29/21 A2975 RMK A01 T02910214  RH  063%=      5-min Rain = 0
KCL2 281747Z 20009KT 29/22 A2975 RMK A01 T02930215  RH  063%=      5-min Rain = 0
KCL2 281748Z 21010KT 30/21 A2975 RMK A01 T02950211  RH  061%=      5-min Rain = 0
KCL2 281749Z 20009G14KT 29/21 A2975 RMK A01 T02940214  RH  062%=      5-min Rain = 0
KCL2 281750Z 20013KT 29/21 A2975 RMK A01 T02940212  RH  061%=      5-min Rain = 0
KCL2 281751Z 20011G17KT 29/21 A2975 RMK A01 T02930211  RH  061%=      5-min Rain = 0
KCL2 281752Z 20014KT 29/21 A2975 RMK A01 T02920208  RH  060%=      5-min Rain = 0
KCL2 281753Z 20014KT 29/21 A2975 RMK A01 T02910208  RH  061%=      5-min Rain = 0
KCL2 281754Z 20012KT 29/21 A2974 RMK A01 T02920206  RH  060%=      5-min Rain = 0
KCL2 281755Z 22014KT 29/21 A2974 RMK A01 T02920209  RH  061%=      5-min Rain = 0
KCL2 281756Z 21012KT 29/21 A2974 RMK A01 T02910207  RH  060%=      5-min Rain = 0
KCL2 281757Z 21012KT 29/21 A2974 RMK A01 T02910207  RH  060%=      5-min Rain = 0
KCL2 281758Z 22010G15KT 29/21 A2974 RMK A01 T02910208  RH  061%=      5-min Rain = 0
KCL2 281759Z 21012KT 29/21 A2974 RMK A01 T02890205  RH  060%=      5-min Rain = 0
KCL2 281800Z 20008KT 29/20 A2974 RMK A01 T02860204  RH  061%=      5-min Rain = 0
KCL2 281801Z 20013KT 29/21 A2974 RMK A01 T02850209  RH  063%=      5-min Rain = 0
KCL2 281802Z 20013KT 29/21 A2974 RMK A01 T02870206  RH  062%=      5-min Rain = 0
KCL2 281803Z 20010KT 29/21 A2974 RMK A01 T02870207  RH  062%=      5-min Rain = 0
KCL2 281804Z 17010KT 29/21 A2974 RMK A01 T02880207  RH  062%=      5-min Rain = 0
KCL2 281805Z 19011KT 29/21 A2974 RMK A01 T02890208  RH  062%=      5-min Rain = 0
KCL2 281806Z 20011KT 29/21 A2974 RMK A01 T02920213  RH  062%=      5-min Rain = 0
KCL2 281807Z 20012KT 29/21 A2974 RMK A01 T02940209  RH  060%=      5-min Rain = 0
KCL2 281808Z 21012KT 29/21 A2974 RMK A01 T02940209  RH  060%=      5-min Rain = 0
KCL2 281809Z 21009KT 29/21 A2974 RMK A01 T02940209  RH  060%=      5-min Rain = 0
KCL2 281810Z 20009KT 29/21 A2974 RMK A01 T02940210  RH  061%=      5-min Rain = 0
KCL2 281811Z 19008KT 29/21 A2974 RMK A01 T02930207  RH  060%=      5-min Rain = 0
KCL2 281812Z 19009KT 29/21 A2974 RMK A01 T02910209  RH  061%=      5-min Rain = 0
KCL2 281813Z 20011KT 29/21 A2974 RMK A01 T02930211  RH  061%=      5-min Rain = 0
KCL2 281814Z 19010KT 30/21 A2974 RMK A01 T02950211  RH  061%=      5-min Rain = 0
KCL2 281815Z 21013KT 30/21 A2974 RMK A01 T02970212  RH  061%=      5-min Rain = 0
KCL2 281816Z 20011KT 30/21 A2974 RMK A01 T02970210  RH  059%=      5-min Rain = 0
KCL2 281817Z 20014KT 30/21 A2974 RMK A01 T02970208  RH  059%=      5-min Rain = 0
KCL2 281818Z 21012KT 30/21 A2974 RMK A01 T02950208  RH  059%=      5-min Rain = 0
KCL2 281819Z 22012KT 30/21 A2974 RMK A01 T02950210  RH  060%=      5-min Rain = 0
KCL2 281820Z 21010KT 30/21 A2974 RMK A01 T02950212  RH  061%=      5-min Rain = 0
KCL2 281821Z 22011G16KT 30/21 A2974 RMK A01 T02960206  RH  058%=      5-min Rain = 0
KCL2 281822Z 23015KT 30/21 A2974 RMK A01 T02950209  RH  060%=      5-min Rain = 0
KCL2 281823Z 21014KT 30/21 A2974 RMK A01 T02970212  RH  060%=      5-min Rain = 0
KCL2 281824Z 20012KT 30/21 A2974 RMK A01 T02980206  RH  058%=      5-min Rain = 0
KCL2 281825Z 21011KT 30/21 A2974 RMK A01 T02970206  RH  058%=      5-min Rain = 0
KCL2 281826Z 21013KT 30/21 A2974 RMK A01 T02970207  RH  059%=      5-min Rain = 0
KCL2 281827Z 20011KT 30/20 A2974 RMK A01 T02980202  RH  056%=      5-min Rain = 0
KCL2 281828Z 21010KT 30/20 A2974 RMK A01 T02970203  RH  057%=      5-min Rain = 0
KCL2 281829Z 22011G16KT 30/21 A2974 RMK A01 T02960209  RH  060%=      5-min Rain = 0
KCL2 281830Z 22012KT 30/20 A2974 RMK A01 T02950202  RH  057%=      5-min Rain = 0
KCL2 281831Z 21011KT 29/20 A2974 RMK A01 T02920204  RH  059%=      5-min Rain = 0
KCL2 281832Z 21012KT 29/21 A2974 RMK A01 T02930206  RH  060%=      5-min Rain = 0
KCL2 281833Z 19009KT 30/21 A2974 RMK A01 T02950210  RH  060%=      5-min Rain = 0
KCL2 281834Z 20009KT 30/21 A2974 RMK A01 T02990212  RH  059%=      5-min Rain = 0
KCL2 281835Z 20010KT 30/21 A2974 RMK A01 T03020213  RH  059%=      5-min Rain = 0
KCL2 281836Z 22012KT 30/21 A2974 RMK A01 T03030210  RH  058%=      5-min Rain = 0
KCL2 281837Z 20011KT 30/21 A2974 RMK A01 T03010210  RH  058%=      5-min Rain = 0
KCL2 281838Z 20010KT 30/21 A2974 RMK A01 T03010213  RH  059%=      5-min Rain = 0
KCL2 281839Z 20012KT 30/21 A2974 RMK A01 T03010208  RH  058%=      5-min Rain = 0
KCL2 281840Z 19008KT 30/21 A2974 RMK A01 T02990213  RH  060%=      5-min Rain = 0
KCL2 281841Z 18012G17KT 30/21 A2974 RMK A01 T03000211  RH  059%=      5-min Rain = 0
KCL2 281842Z 18011KT 30/21 A2974 RMK A01 T03010209  RH  058%=      5-min Rain = 0
KCL2 281843Z 18013KT 30/21 A2974 RMK A01 T03000211  RH  059%=      5-min Rain = 0
KCL2 281844Z 17010KT 30/21 A2974 RMK A01 T03010212  RH  059%=      5-min Rain = 0
KCL2 281845Z 18012KT 30/21 A2974 RMK A01 T03020208  RH  057%=      5-min Rain = 0
KCL2 281846Z 17011KT 30/21 A2974 RMK A01 T03000208  RH  058%=      5-min Rain = 0
KCL2 281847Z 16008KT 30/21 A2974 RMK A01 T03000210  RH  058%=      5-min Rain = 0
KCL2 281848Z 17010G15KT 30/21 A2973 RMK A01 T03020214  RH  059%=      5-min Rain = 0
KCL2 281849Z 18012KT 31/21 A2973 RMK A01 T03050208  RH  056%=      5-min Rain = 0
KCL2 281850Z 18012KT 30/21 A2974 RMK A01 T03040208  RH  056%=      5-min Rain = 0
KCL2 281851Z 17011KT 30/21 A2973 RMK A01 T03010205  RH  056%=      5-min Rain = 0
KCL2 281852Z 18011KT 30/21 A2973 RMK A01 T02980206  RH  058%=      5-min Rain = 0
KCL2 281853Z 17010KT 30/21 A2973 RMK A01 T02960206  RH  058%=      5-min Rain = 0
KCL2 281854Z 16009KT 30/21 A2973 RMK A01 T02960207  RH  059%=      5-min Rain = 0
KCL2 281855Z 16008KT 30/21 A2973 RMK A01 T02980206  RH  058%=      5-min Rain = 0
KCL2 281856Z 17011KT 30/21 A2973 RMK A01 T02980207  RH  058%=      5-min Rain = 0
KCL2 281857Z 18009KT 30/21 A2973 RMK A01 T02990208  RH  058%=      5-min Rain = 0
KCL2 281858Z 17012KT 30/21 A2973 RMK A01 T03000209  RH  058%=      5-min Rain = 0
KCL2 281859Z 18012KT 30/21 A2973 RMK A01 T03020205  RH  056%=      5-min Rain = 0
KCL2 281900Z 19009KT 30/21 A2973 RMK A01 T03040207  RH  056%=      5-min Rain = 0
KCL2 281901Z 21011KT 30/21 A2973 RMK A01 T03040205  RH  055%=      5-min Rain = 0
KCL2 281902Z 19011KT 31/20 A2973 RMK A01 T03050204  RH  055%=      5-min Rain = 0
KCL2 281903Z 18011KT 30/21 A2973 RMK A01 T03030206  RH  056%=      5-min Rain = 0
KCL2 281904Z 19011KT 30/20 A2973 RMK A01 T03040203  RH  055%=      5-min Rain = 0
KCL2 281905Z 18009KT 30/21 A2973 RMK A01 T03040205  RH  055%=      5-min Rain = 0
KCL2 281906Z 17014KT 31/21 A2973 RMK A01 T03050205  RH  055%=      5-min Rain = 0
KCL2 281907Z 19013G18KT 31/21 A2973 RMK A01 T03060207  RH  056%=      5-min Rain = 0
KCL2 281908Z 19011KT 31/21 A2973 RMK A01 T03060207  RH  055%=      5-min Rain = 0
KCL2 281909Z 18011KT 31/21 A2973 RMK A01 T03060210  RH  057%=      5-min Rain = 0
KCL2 281910Z 19011KT 31/21 A2973 RMK A01 T03060205  RH  055%=      5-min Rain = 0
KCL2 281911Z 17010KT 31/21 A2973 RMK A01 T03050206  RH  055%=      5-min Rain = 0
KCL2 281912Z 15010KT 31/21 A2973 RMK A01 T03050209  RH  056%=      5-min Rain = 0
KCL2 281913Z 17011KT 31/21 A2973 RMK A01 T03060208  RH  056%=      5-min Rain = 0
KCL2 281914Z 20011G17KT 31/21 A2973 RMK A01 T03070205  RH  055%=      5-min Rain = 0
KCL2 281915Z 20012KT 31/21 A2973 RMK A01 T03060210  RH  056%=      5-min Rain = 0
KCL2 281916Z 19010KT 31/21 A2973 RMK A01 T03090211  RH  056%=      5-min Rain = 0
KCL2 281917Z 19010KT 31/21 A2973 RMK A01 T03110210  RH  055%=      5-min Rain = 0
KCL2 281918Z 19014KT 31/21 A2973 RMK A01 T03120206  RH  053%=      5-min Rain = 0
KCL2 281919Z 20012KT 31/21 A2973 RMK A01 T03090205  RH  054%=      5-min Rain = 0
KCL2 281920Z 19011KT 31/21 A2973 RMK A01 T03070207  RH  055%=      5-min Rain = 0
KCL2 281921Z 20010KT 31/21 A2973 RMK A01 T03070208  RH  055%=      5-min Rain = 0
KCL2 281922Z 19011KT 31/21 A2973 RMK A01 T03070208  RH  055%=      5-min Rain = 0
KCL2 281923Z 18014KT 31/21 A2973 RMK A01 T03070205  RH  055%=      5-min Rain = 0
KCL2 281924Z 19013KT 31/20 A2973 RMK A01 T03070204  RH  054%=      5-min Rain = 0
KCL2 281925Z 18010KT 31/21 A2973 RMK A01 T03070206  RH  055%=      5-min Rain = 0
KCL2 281926Z 18012KT 31/21 A2972 RMK A01 T03080205  RH  054%=      5-min Rain = 0
KCL2 281927Z 18012KT 31/20 A2972 RMK A01 T03080203  RH  054%=      5-min Rain = 0
KCL2 281928Z 17014KT 31/20 A2972 RMK A01 T03080201  RH  053%=      5-min Rain = 0
KCL2 281929Z 18010KT 31/20 A2972 RMK A01 T03080203  RH  054%=      5-min Rain = 0
KCL2 281930Z 18010KT 31/20 A2972 RMK A01 T03080202  RH  053%=      5-min Rain = 0
KCL2 281931Z 17012KT 31/21 A2972 RMK A01 T03080209  RH  056%=      5-min Rain = 0
KCL2 281932Z 16011KT 31/21 A2972 RMK A01 T03110210  RH  055%=      5-min Rain = 0
KCL2 281933Z 19013KT 31/21 A2972 RMK A01 T03140209  RH  054%=      5-min Rain = 0
KCL2 281934Z 19013KT 31/21 A2972 RMK A01 T03140210  RH  054%=      5-min Rain = 0
KCL2 281935Z 19014KT 31/21 A2972 RMK A01 T03130206  RH  053%=      5-min Rain = 0
KCL2 281936Z 19014KT 31/20 A2972 RMK A01 T03110202  RH  052%=      5-min Rain = 0
KCL2 281937Z 19010KT 31/21 A2972 RMK A01 T03090206  RH  054%=      5-min Rain = 0
KCL2 281938Z 17014KT 31/20 A2972 RMK A01 T03100200  RH  052%=      5-min Rain = 0
KCL2 281939Z 17011KT 31/20 A2972 RMK A01 T03100201  RH  052%=      5-min Rain = 0
KCL2 281940Z 19013KT 31/20 A2972 RMK A01 T03110198  RH  051%=      5-min Rain = 0
KCL2 281941Z 18010KT 31/20 A2972 RMK A01 T03100200  RH  052%=      5-min Rain = 0
KCL2 281942Z 19012KT 31/20 A2972 RMK A01 T03090203  RH  053%=      5-min Rain = 0
KCL2 281943Z 21010KT 31/20 A2972 RMK A01 T03090203  RH  053%=      5-min Rain = 0
KCL2 281944Z 21013KT 31/21 A2972 RMK A01 T03110208  RH  055%=      5-min Rain = 0
KCL2 281945Z 20015KT 31/20 A2972 RMK A01 T03120203  RH  052%=      5-min Rain = 0
KCL2 281946Z 20011KT 31/20 A2972 RMK A01 T03120202  RH  052%=      5-min Rain = 0
KCL2 281947Z 21011KT 31/20 A2972 RMK A01 T03110203  RH  053%=      5-min Rain = 0
KCL2 281948Z 20013KT 31/20 A2972 RMK A01 T03100203  RH  053%=      5-min Rain = 0
KCL2 281949Z 17012KT 31/20 A2972 RMK A01 T03110202  RH  053%=      5-min Rain = 0
KCL2 281950Z 16017KT 31/19 A2972 RMK A01 T03100194  RH  050%=      5-min Rain = 0
KCL2 281951Z 19011KT 31/20 A2972 RMK A01 T03090197  RH  051%=      5-min Rain = 0
KCL2 281952Z 19011KT 31/20 A2972 RMK A01 T03090196  RH  051%=      5-min Rain = 0
KCL2 281953Z 20012KT 31/20 A2972 RMK A01 T03070196  RH  052%=      5-min Rain = 0
KCL2 281954Z 19011KT 31/20 A2972 RMK A01 T03050195  RH  052%=      5-min Rain = 0
KCL2 281955Z 19009KT 30/20 A2972 RMK A01 T03030199  RH  054%=      5-min Rain = 0
KCL2 281956Z 18011KT 30/20 A2972 RMK A01 T03020196  RH  053%=      5-min Rain = 0
KCL2 281957Z 18011KT 30/20 A2972 RMK A01 T03040197  RH  053%=      5-min Rain = 0
KCL2 281958Z 18011KT 31/20 A2972 RMK A01 T03090195  RH  051%=      5-min Rain = 0
KCL2 281959Z 17012KT 31/20 A2972 RMK A01 T03100199  RH  052%=      5-min Rain = 0
KCL2 282000Z 17013KT 31/22 A2972 RMK A01 T03070219  RH  060%=      5-min Rain = 0
KCL2 282001Z 17013KT 30/22 A2972 RMK A01 T03010220  RH  062%=      5-min Rain = 0
KCL2 282002Z 17014KT 30/22 A2972 RMK A01 T02980222  RH  064%=      5-min Rain = 0
KCL2 282003Z 15013KT 30/22 A2972 RMK A01 T02970220  RH  063%=      5-min Rain = 0
KCL2 282004Z 14012KT 30/22 A2972 RMK A01 T02950219  RH  063%=      5-min Rain = 0
KCL2 282005Z 14012KT 29/22 A2972 RMK A01 T02930217  RH  064%=      5-min Rain = 0
KCL2 282006Z 14009KT 29/22 A2972 RMK A01 T02920218  RH  065%=      5-min Rain = 0
KCL2 282007Z 13008KT 30/22 A2972 RMK A01 T02960224  RH  066%=      5-min Rain = 0
KCL2 282008Z 13009KT 30/22 A2972 RMK A01 T02990221  RH  063%=      5-min Rain = 0
KCL2 282009Z 15010KT 30/22 A2972 RMK A01 T02980221  RH  063%=      5-min Rain = 0
KCL2 282010Z 13010KT 30/22 A2971 RMK A01 T02990223  RH  064%=      5-min Rain = 0
KCL2 282011Z 13014KT 30/22 A2971 RMK A01 T03010220  RH  062%=      5-min Rain = 0
KCL2 282012Z 14013KT 30/22 A2971 RMK A01 T02990220  RH  062%=      5-min Rain = 0
KCL2 282013Z 14011KT 30/22 A2971 RMK A01 T02970222  RH  064%=      5-min Rain = 0
KCL2 282014Z 16013KT 30/22 A2971 RMK A01 T02960221  RH  064%=      5-min Rain = 0
KCL2 282015Z 15011KT 29/22 A2971 RMK A01 T02940220  RH  064%=      5-min Rain = 0
KCL2 282016Z 16010KT 29/22 A2971 RMK A01 T02930221  RH  065%=      5-min Rain = 0
KCL2 282017Z 16012KT 29/22 A2971 RMK A01 T02930222  RH  066%=      5-min Rain = 0
KCL2 282018Z 14011KT 30/22 A2971 RMK A01 T02950223  RH  065%=      5-min Rain = 0
KCL2 282019Z 14011KT 30/22 A2971 RMK A01 T02970223  RH  064%=      5-min Rain = 0
KCL2 282020Z 15012KT 30/22 A2971 RMK A01 T02970223  RH  065%=      5-min Rain = 0
KCL2 282021Z 14010KT 30/22 A2971 RMK A01 T02950222  RH  065%=      5-min Rain = 0
KCL2 282022Z 15012KT 30/22 A2971 RMK A01 T02950223  RH  065%=      5-min Rain = 0
KCL2 282023Z 16012KT 30/22 A2971 RMK A01 T02950221  RH  064%=      5-min Rain = 0
KCL2 282024Z 16008KT 30/22 A2971 RMK A01 T02950223  RH  065%=      5-min Rain = 0
KCL2 282025Z 16009KT 30/22 A2971 RMK A01 T02980224  RH  064%=      5-min Rain = 0
KCL2 282026Z 15010KT 30/22 A2971 RMK A01 T03000221  RH  063%=      5-min Rain = 0
KCL2 282027Z 15009KT 30/22 A2971 RMK A01 T02980221  RH  063%=      5-min Rain = 0
KCL2 282028Z 14009KT 30/22 A2971 RMK A01 T02960220  RH  064%=      5-min Rain = 0
KCL2 282029Z 14011KT 30/22 A2971 RMK A01 T02960221  RH  064%=      5-min Rain = 0
KCL2 282030Z 15010KT 30/22 A2971 RMK A01 T02960221  RH  064%=      5-min Rain = 0
KCL2 282031Z 14009KT 30/22 A2971 RMK A01 T02970221  RH  064%=      5-min Rain = 0
KCL2 282032Z 14007KT 30/22 A2971 RMK A01 T02990224  RH  064%=      5-min Rain = 0
KCL2 282033Z 13009KT 30/22 A2971 RMK A01 T03010223  RH  063%=      5-min Rain = 0
KCL2 282034Z 14009KT 30/22 A2971 RMK A01 T03020223  RH  063%=      5-min Rain = 0
KCL2 282035Z 13008KT 30/22 A2971 RMK A01 T03010223  RH  063%=      5-min Rain = 0
KCL2 282036Z 13009KT 30/22 A2971 RMK A01 T03010224  RH  063%=      5-min Rain = 0
KCL2 282037Z 14008KT 30/22 A297 RMK A01 T03000223  RH  063%=      5-min Rain = 0
KCL2 282038Z 15009KT 30/22 A2971 RMK A01 T02990224  RH  064%=      5-min Rain = 0
KCL2 282039Z 18011KT 30/22 A297 RMK A01 T02990224  RH  064%=      5-min Rain = 0
KCL2 282040Z 18012KT 30/22 A297 RMK A01 T03010217  RH  061%=      5-min Rain = 0
KCL2 282041Z 18011KT 30/22 A2971 RMK A01 T03020219  RH  061%=      5-min Rain = 0
KCL2 282042Z 17012KT 30/22 A2971 RMK A01 T03020218  RH  061%=      5-min Rain = 0
KCL2 282043Z 15013KT 30/22 A297 RMK A01 T03020219  RH  061%=      5-min Rain = 0
KCL2 282044Z 15012KT 30/22 A297 RMK A01 T03010220  RH  062%=      5-min Rain = 0
KCL2 282045Z 15012KT 30/22 A2971 RMK A01 T03020223  RH  063%=      5-min Rain = 0
KCL2 282046Z 14016KT 30/23 A2971 RMK A01 T03040225  RH  063%=      5-min Rain = 0
KCL2 282047Z 14014KT 30/22 A2971 RMK A01 T03010224  RH  063%=      5-min Rain = 0
KCL2 282048Z 13015KT 30/23 A297 RMK A01 T02980225  RH  065%=      5-min Rain = 0
KCL2 282049Z 13015G20KT 30/23 A2971 RMK A01 T02970225  RH  065%=      5-min Rain = 0
KCL2 282050Z 15017KT 29/22 A2971 RMK A01 T02940222  RH  065%=      5-min Rain = 0
KCL2 282051Z 14014KT 29/22 A2971 RMK A01 T02910222  RH  066%=      5-min Rain = 0
KCL2 282052Z 14013KT 29/22 A2971 RMK A01 T02890222  RH  067%=      5-min Rain = 0
KCL2 282053Z 14012KT 29/22 A2971 RMK A01 T02890223  RH  068%=      5-min Rain = 0
KCL2 282054Z 14012G17KT 29/22 A2971 RMK A01 T02900223  RH  067%=      5-min Rain = 0
KCL2 282055Z 17016G21KT 29/23 A297 RMK A01 T02920225  RH  067%=      5-min Rain = 0
KCL2 282056Z 16016KT 29/22 A297 RMK A01 T02940222  RH  065%=      5-min Rain = 0
KCL2 282057Z 16014KT 30/22 A297 RMK A01 T02950224  RH  066%=      5-min Rain = 0
KCL2 282058Z 16014G19KT 30/23 A297 RMK A01 T02960225  RH  066%=      5-min Rain = 0
KCL2 282059Z 15015KT 30/23 A297 RMK A01 T02980226  RH  065%=      5-min Rain = 0
KCL2 282100Z 15013KT 30/22 A2971 RMK A01 T02990223  RH  064%=      5-min Rain = 0
KCL2 282101Z 15014KT 30/22 A297 RMK A01 T02960223  RH  065%=      5-min Rain = 0
KCL2 282102Z 16011KT 30/22 A2971 RMK A01 T02950224  RH  066%=      5-min Rain = 0
KCL2 282103Z 16012KT 30/23 A297 RMK A01 T02960225  RH  066%=      5-min Rain = 0
KCL2 282104Z 15011G16KT 30/22 A297 RMK A01 T02970224  RH  065%=      5-min Rain = 0
KCL2 282105Z 15013KT 30/22 A297 RMK A01 T02960224  RH  065%=      5-min Rain = 0
KCL2 282106Z 15015KT 30/22 A297 RMK A01 T02950221  RH  064%=      5-min Rain = 0
KCL2 282107Z 15014KT 29/22 A297 RMK A01 T02940221  RH  065%=      5-min Rain = 0
KCL2 282108Z 16015KT 29/22 A297 RMK A01 T02930221  RH  065%=      5-min Rain = 0
KCL2 282109Z 15015KT 29/22 A297 RMK A01 T02920221  RH  066%=      5-min Rain = 0
KCL2 282110Z 14013G18KT 29/22 A297 RMK A01 T02930222  RH  065%=      5-min Rain = 0
KCL2 282111Z 15012KT 29/22 A297 RMK A01 T02940224  RH  066%=      5-min Rain = 0
KCL2 282112Z 14010KT 30/23 A297 RMK A01 T02970226  RH  066%=      5-min Rain = 0
KCL2 282113Z 15009KT 30/23 A297 RMK A01 T03000227  RH  065%=      5-min Rain = 0
KCL2 282114Z 14012G17KT 30/23 A297 RMK A01 T03020227  RH  064%=      5-min Rain = 0
KCL2 282115Z 13016KT 30/23 A297 RMK A01 T03020226  RH  064%=      5-min Rain = 0
KCL2 282116Z 13013KT 30/23 A297 RMK A01 T03000225  RH  064%=      5-min Rain = 0
KCL2 282117Z 15015KT 30/22 A297 RMK A01 T02970224  RH  065%=      5-min Rain = 0
KCL2 282118Z 16015KT 30/22 A297 RMK A01 T02950224  RH  066%=      5-min Rain = 0
KCL2 282119Z 15013KT 29/22 A297 RMK A01 T02940222  RH  065%=      5-min Rain = 0
KCL2 282120Z 14013KT 29/22 A297 RMK A01 T02920222  RH  066%=      5-min Rain = 0
KCL2 282121Z 15011KT 29/22 A297 RMK A01 T02910222  RH  066%=      5-min Rain = 0
KCL2 282122Z 16015KT 29/22 A297 RMK A01 T02900222  RH  066%=      5-min Rain = 0
KCL2 282123Z 15015KT 29/22 A297 RMK A01 T02900220  RH  066%=      5-min Rain = 0
KCL2 282124Z 16012KT 29/22 A297 RMK A01 T02910221  RH  066%=      5-min Rain = 0
KCL2 282125Z 15011KT 29/23 A297 RMK A01 T02930225  RH  067%=      5-min Rain = 0
KCL2 282126Z 17012KT 30/23 A297 RMK A01 T02950225  RH  066%=      5-min Rain = 0
KCL2 282127Z 16013KT 30/22 A297 RMK A01 T02960222  RH  065%=      5-min Rain = 0
KCL2 282128Z 14015KT 30/22 A297 RMK A01 T02960222  RH  064%=      5-min Rain = 0
KCL2 282129Z 14014G19KT 30/22 A297 RMK A01 T02950223  RH  065%=      5-min Rain = 0
KCL2 282130Z 15014KT 30/22 A297 RMK A01 T02950222  RH  065%=      5-min Rain = 0
KCL2 282131Z 15015KT 30/22 A297 RMK A01 T02950220  RH  064%=      5-min Rain = 0
KCL2 282132Z 15014G20KT 30/22 A297 RMK A01 T02950223  RH  065%=      5-min Rain = 0
KCL2 282133Z 13013KT 30/22 A297 RMK A01 T02950222  RH  065%=      5-min Rain = 0
KCL2 282134Z 14013KT 30/22 A297 RMK A01 T02960223  RH  065%=      5-min Rain = 0
KCL2 282135Z 14011KT 30/22 A297 RMK A01 T02960224  RH  065%=      5-min Rain = 0
KCL2 282136Z 15013KT 30/23 A297 RMK A01 T02960225  RH  066%=      5-min Rain = 0
KCL2 282137Z 15015KT 30/23 A297 RMK A01 T02970225  RH  065%=      5-min Rain = 0
KCL2 282138Z 15012KT 30/22 A297 RMK A01 T02960223  RH  065%=      5-min Rain = 0
KCL2 282139Z 14014KT 29/22 A297 RMK A01 T02940224  RH  066%=      5-min Rain = 0
KCL2 282140Z 13013KT 29/22 A297 RMK A01 T02940224  RH  066%=      5-min Rain = 0
KCL2 282141Z 14013G18KT 29/22 A297 RMK A01 T02940224  RH  066%=      5-min Rain = 0
KCL2 282142Z 14013KT 29/22 A297 RMK A01 T02930221  RH  065%=      5-min Rain = 0
KCL2 282143Z 14014KT 29/22 A297 RMK A01 T02900220  RH  066%=      5-min Rain = 0
KCL2 282144Z 15011G17KT 29/22 A297 RMK A01 T02880221  RH  067%=      5-min Rain = 0
KCL2 282145Z 15016KT 29/22 A297 RMK A01 T02880219  RH  066%=      5-min Rain = 0
KCL2 282146Z 14013KT 29/22 A297 RMK A01 T02890220  RH  067%=      5-min Rain = 0
KCL2 282147Z 15014KT 29/22 A297 RMK A01 T02910221  RH  066%=      5-min Rain = 0
KCL2 282148Z 15012G18KT 29/22 A297 RMK A01 T02940224  RH  066%=      5-min Rain = 0
KCL2 282149Z 15016KT 30/22 A297 RMK A01 T02960220  RH  064%=      5-min Rain = 0
KCL2 282150Z 16014KT 30/22 A297 RMK A01 T02960220  RH  064%=      5-min Rain = 0
KCL2 282151Z 14015G20KT 30/22 A2969 RMK A01 T02960221  RH  064%=      5-min Rain = 0
KCL2 282152Z 14015KT 30/22 A297 RMK A01 T02970219  RH  063%=      5-min Rain = 0
KCL2 282153Z 14014KT 30/22 A2969 RMK A01 T02960218  RH  063%=      5-min Rain = 0
KCL2 282154Z 15013KT 30/22 A2969 RMK A01 T02950218  RH  063%=      5-min Rain = 0
KCL2 282155Z 15014KT 29/22 A2969 RMK A01 T02930218  RH  064%=      5-min Rain = 0
KCL2 282156Z 15015KT 29/22 A2969 RMK A01 T02910216  RH  064%=      5-min Rain = 0
KCL2 282157Z 15014KT 29/22 A2969 RMK A01 T02890215  RH  064%=      5-min Rain = 0
KCL2 282158Z 15013KT 29/22 A2969 RMK A01 T02880216  RH  065%=      5-min Rain = 0
KCL2 282159Z 14010KT 29/22 A2969 RMK A01 T02890220  RH  066%=      5-min Rain = 0
KCL2 282200Z 14015KT 29/22 A2969 RMK A01 T02920220  RH  065%=      5-min Rain = 0
KCL2 282201Z 14014KT 29/22 A2969 RMK A01 T02920219  RH  064%=      5-min Rain = 0
KCL2 282202Z 15014G19KT 29/22 A2969 RMK A01 T02930219  RH  065%=      5-min Rain = 0
KCL2 282203Z 15015KT 29/22 A2969 RMK A01 T02930219  RH  064%=      5-min Rain = 0
KCL2 282204Z 15014KT 29/22 A2969 RMK A01 T02940219  RH  064%=      5-min Rain = 0
KCL2 282205Z 14014KT 30/22 A2969 RMK A01 T02950220  RH  064%=      5-min Rain = 0
KCL2 282206Z 15012KT 30/22 A2969 RMK A01 T02950221  RH  064%=      5-min Rain = 0
KCL2 282207Z 14016KT 30/22 A2969 RMK A01 T02970220  RH  063%=      5-min Rain = 0
KCL2 282208Z 14013KT 30/22 A2969 RMK A01 T02970220  RH  063%=      5-min Rain = 0
KCL2 282209Z 14011KT 30/22 A2969 RMK A01 T02970221  RH  063%=      5-min Rain = 0
KCL2 282210Z 14011KT 30/22 A2969 RMK A01 T02990221  RH  063%=      5-min Rain = 0
KCL2 282211Z 15014KT 30/22 A2969 RMK A01 T03000221  RH  063%=      5-min Rain = 0
KCL2 282212Z 16016KT 30/22 A2969 RMK A01 T03000218  RH  062%=      5-min Rain = 0
KCL2 282213Z 15015KT 30/22 A2969 RMK A01 T02990218  RH  062%=      5-min Rain = 0
KCL2 282214Z 15014KT 30/22 A2969 RMK A01 T02980218  RH  062%=      5-min Rain = 0
KCL2 282215Z 16014KT 30/22 A2969 RMK A01 T02990219  RH  063%=      5-min Rain = 0
KCL2 282216Z 16015KT 30/22 A2969 RMK A01 T03000218  RH  062%=      5-min Rain = 0
KCL2 282217Z 14012KT 30/22 A2969 RMK A01 T03000219  RH  062%=      5-min Rain = 0
KCL2 282218Z 14012KT 30/22 A2969 RMK A01 T03010221  RH  062%=      5-min Rain = 0
KCL2 282219Z 14012KT 30/22 A2969 RMK A01 T03010217  RH  061%=      5-min Rain = 0
KCL2 282220Z 14011KT 30/22 A2969 RMK A01 T03010221  RH  062%=      5-min Rain = 0
KCL2 282221Z 14013KT 30/22 A2969 RMK A01 T03020218  RH  061%=      5-min Rain = 0
KCL2 282222Z 14014KT 30/22 A2969 RMK A01 T03020220  RH  062%=      5-min Rain = 0
KCL2 282223Z 15011G17KT 30/22 A2969 RMK A01 T03010222  RH  062%=      5-min Rain = 0
KCL2 282224Z 16014KT 30/22 A2969 RMK A01 T03030220  RH  061%=      5-min Rain = 0
KCL2 282225Z 16014KT 30/22 A2969 RMK A01 T03040220  RH  061%=      5-min Rain = 0
KCL2 282226Z 16012KT 30/22 A2969 RMK A01 T03040219  RH  061%=      5-min Rain = 0
KCL2 282227Z 15011KT 31/22 A2968 RMK A01 T03050222  RH  061%=      5-min Rain = 0
KCL2 282228Z 14014KT 31/22 A2968 RMK A01 T03050220  RH  061%=      5-min Rain = 0
KCL2 282229Z 14014KT 30/22 A2968 RMK A01 T03040221  RH  061%=      5-min Rain = 0
KCL2 282230Z 15012KT 30/22 A2968 RMK A01 T03030221  RH  061%=      5-min Rain = 0
KCL2 282231Z 15013KT 30/22 A2968 RMK A01 T03040218  RH  060%=      5-min Rain = 0
KCL2 282232Z 15016KT 30/22 A2968 RMK A01 T03040218  RH  060%=      5-min Rain = 0
KCL2 282233Z 16013KT 30/22 A2968 RMK A01 T03030218  RH  061%=      5-min Rain = 0
KCL2 282234Z 16014KT 30/22 A2968 RMK A01 T03020218  RH  061%=      5-min Rain = 0
KCL2 282235Z 16013KT 30/22 A2968 RMK A01 T03020215  RH  060%=      5-min Rain = 0
KCL2 282236Z 16010KT 30/22 A2968 RMK A01 T03010217  RH  061%=      5-min Rain = 0
KCL2 282237Z 14009KT 30/22 A2968 RMK A01 T03010219  RH  061%=      5-min Rain = 0
KCL2 282238Z 14012KT 30/22 A2968 RMK A01 T03000220  RH  062%=      5-min Rain = 0
KCL2 282239Z 15012KT 30/22 A2968 RMK A01 T03000220  RH  062%=      5-min Rain = 0
KCL2 282240Z 14011KT 30/22 A2968 RMK A01 T03010220  RH  062%=      5-min Rain = 0
KCL2 282241Z 15014KT 30/22 A2968 RMK A01 T03000219  RH  062%=      5-min Rain = 0
KCL2 282242Z 14016KT 30/22 A2968 RMK A01 T02970217  RH  062%=      5-min Rain = 0
KCL2 282243Z 15016KT 30/22 A2968 RMK A01 T02970215  RH  062%=      5-min Rain = 0
KCL2 282244Z 16015KT 30/22 A2968 RMK A01 T02960215  RH  062%=      5-min Rain = 0
KCL2 282245Z 15015KT 30/22 A2968 RMK A01 T02970215  RH  062%=      5-min Rain = 0
KCL2 282246Z 15016KT 30/21 A2968 RMK A01 T02970213  RH  061%=      5-min Rain = 0
KCL2 282247Z 15013KT 30/21 A2968 RMK A01 T02970214  RH  061%=      5-min Rain = 0
KCL2 282248Z 16014KT 30/22 A2968 RMK A01 T02980215  RH  061%=      5-min Rain = 0
KCL2 282249Z 16012KT 30/22 A2968 RMK A01 T02990215  RH  061%=      5-min Rain = 0
KCL2 282250Z 16013G20KT 30/22 A2968 RMK A01 T03000215  RH  060%=      5-min Rain = 0
KCL2 282251Z 15012KT 30/21 A2968 RMK A01 T03000214  RH  060%=      5-min Rain = 0
KCL2 282252Z 15014G19KT 30/22 A2968 RMK A01 T03010215  RH  060%=      5-min Rain = 0
KCL2 282253Z 16013KT 30/22 A2968 RMK A01 T03010216  RH  060%=      5-min Rain = 0
KCL2 282254Z 15014KT 30/22 A2968 RMK A01 T03000215  RH  060%=      5-min Rain = 0
KCL2 282255Z 15014KT 30/22 A2968 RMK A01 T02980215  RH  061%=      5-min Rain = 0
KCL2 282256Z 16014G19KT 30/22 A2968 RMK A01 T02960215  RH  062%=      5-min Rain = 0
KCL2 282257Z 15011KT 30/22 A2968 RMK A01 T02950217  RH  063%=      5-min Rain = 0
KCL2 282258Z 15012KT 30/22 A2968 RMK A01 T02950216  RH  063%=      5-min Rain = 0
KCL2 282259Z 15016KT 30/21 A2968 RMK A01 T02960214  RH  062%=      5-min Rain = 0
KCL2 282300Z 14011G17KT 30/22 A2968 RMK A01 T02960215  RH  062%=      5-min Rain = 0
KCL2 282301Z 14014G19KT 30/22 A2968 RMK A01 T02970215  RH  061%=      5-min Rain = 0
KCL2 282302Z 14012KT 30/22 A2968 RMK A01 T02980216  RH  061%=      5-min Rain = 0
KCL2 282303Z 14012KT 30/22 A2968 RMK A01 T03000215  RH  061%=      5-min Rain = 0
KCL2 282304Z 15016KT 30/22 A2968 RMK A01 T03000215  RH  060%=      5-min Rain = 0
KCL2 282305Z 15011KT 30/21 A2968 RMK A01 T03000214  RH  060%=      5-min Rain = 0
KCL2 282306Z 14015KT 30/21 A2968 RMK A01 T03000214  RH  060%=      5-min Rain = 0
KCL2 282307Z 14015KT 30/21 A2968 RMK A01 T03000214  RH  060%=      5-min Rain = 0
KCL2 282308Z 15014KT 30/21 A2968 RMK A01 T03000213  RH  060%=      5-min Rain = 0
KCL2 282309Z 15013KT 30/21 A2968 RMK A01 T02990214  RH  060%=      5-min Rain = 0
KCL2 282310Z 15015KT 30/21 A2968 RMK A01 T03000213  RH  060%=      5-min Rain = 0
KCL2 282311Z 15012KT 30/21 A2968 RMK A01 T03010214  RH  060%=      5-min Rain = 0
KCL2 282312Z 15015KT 30/21 A2968 RMK A01 T03000214  RH  060%=      5-min Rain = 0
KCL2 282313Z 15017KT 30/21 A2968 RMK A01 T03010211  RH  059%=      5-min Rain = 0
KCL2 282314Z 14016G21KT 30/21 A2968 RMK A01 T03000211  RH  059%=      5-min Rain = 0
KCL2 282315Z 14016G21KT 30/21 A2968 RMK A01 T02990212  RH  060%=      5-min Rain = 0
KCL2 282316Z 15013G21KT 30/21 A2968 RMK A01 T02990212  RH  060%=      5-min Rain = 0
KCL2 282317Z 15013KT 30/21 A2968 RMK A01 T02990213  RH  060%=      5-min Rain = 0
KCL2 282318Z 15010KT 30/21 A2968 RMK A01 T02990213  RH  060%=      5-min Rain = 0
KCL2 282319Z 16014KT 30/22 A2968 RMK A01 T03000215  RH  060%=      5-min Rain = 0
KCL2 282320Z 16013KT 30/21 A2968 RMK A01 T03000213  RH  059%=      5-min Rain = 0
KCL2 282321Z 16016KT 30/21 A2968 RMK A01 T03000212  RH  059%=      5-min Rain = 0
KCL2 282322Z 15013G18KT 30/21 A2968 RMK A01 T03000212  RH  059%=      5-min Rain = 0
KCL2 282323Z 15014G19KT 30/21 A2968 RMK A01 T02990212  RH  059%=      5-min Rain = 0
KCL2 282324Z 15016KT 30/21 A2968 RMK A01 T02980210  RH  059%=      5-min Rain = 0
KCL2 282325Z 15018KT 30/21 A2968 RMK A01 T02980209  RH  059%=      5-min Rain = 0
KCL2 282326Z 15015KT 30/21 A2968 RMK A01 T02970208  RH  059%=      5-min Rain = 0
KCL2 282327Z 15017KT 30/21 A2968 RMK A01 T02970208  RH  059%=      5-min Rain = 0
KCL2 282328Z 15017KT 30/21 A2968 RMK A01 T02960207  RH  059%=      5-min Rain = 0
KCL2 282329Z 15015KT 30/21 A2968 RMK A01 T02960208  RH  059%=      5-min Rain = 0
KCL2 282330Z 15012KT 30/21 A2968 RMK A01 T02960207  RH  059%=      5-min Rain = 0
KCL2 282331Z 15012KT 30/21 A2968 RMK A01 T02960209  RH  060%=      5-min Rain = 0
KCL2 282332Z 15013KT 30/21 A2968 RMK A01 T02950209  RH  060%=      5-min Rain = 0
KCL2 282333Z 16016KT 29/21 A2968 RMK A01 T02940208  RH  060%=      5-min Rain = 0
KCL2 282334Z 15013G18KT 29/21 A2968 RMK A01 T02920208  RH  060%=      5-min Rain = 0
KCL2 282335Z 14014G19KT 29/21 A2968 RMK A01 T02910210  RH  061%=      5-min Rain = 0
KCL2 282336Z 15016KT 29/21 A2968 RMK A01 T02910207  RH  061%=      5-min Rain = 0
KCL2 282337Z 15013KT 29/21 A2968 RMK A01 T02910208  RH  061%=      5-min Rain = 0
KCL2 282338Z 15014KT 29/21 A2968 RMK A01 T02910206  RH  060%=      5-min Rain = 0
KCL2 282339Z 16014KT 29/21 A2968 RMK A01 T02900207  RH  061%=      5-min Rain = 0
KCL2 282340Z 14011KT 29/21 A2968 RMK A01 T02900207  RH  061%=      5-min Rain = 0
KCL2 282341Z 15013G18KT 29/21 A2968 RMK A01 T02890207  RH  061%=      5-min Rain = 0
KCL2 282342Z 15012KT 29/21 A2968 RMK A01 T02900207  RH  061%=      5-min Rain = 0
KCL2 282343Z 14013KT 29/21 A2968 RMK A01 T02920208  RH  061%=      5-min Rain = 0
KCL2 282344Z 15015KT 29/21 A2968 RMK A01 T02930208  RH  060%=      5-min Rain = 0
KCL2 282345Z 15012KT 29/21 A2968 RMK A01 T02930207  RH  060%=      5-min Rain = 0
KCL2 282346Z 15013KT 29/21 A2968 RMK A01 T02940208  RH  060%=      5-min Rain = 0
KCL2 282347Z 15011KT 29/21 A2968 RMK A01 T02940209  RH  060%=      5-min Rain = 0
KCL2 282348Z 15012KT 29/21 A2968 RMK A01 T02930209  RH  060%=      5-min Rain = 0
KCL2 282349Z 16015G22KT 29/21 A2968 RMK A01 T02920207  RH  060%=      5-min Rain = 0
KCL2 282350Z 15016KT 29/21 A2968 RMK A01 T02910205  RH  060%=      5-min Rain = 0
KCL2 282351Z 15013KT 29/21 A2968 RMK A01 T02910205  RH  060%=      5-min Rain = 0
KCL2 282352Z 16015KT 29/21 A2968 RMK A01 T02920205  RH  059%=      5-min Rain = 0
KCL2 282353Z 15013KT 29/21 A2968 RMK A01 T02930206  RH  059%=      5-min Rain = 0
KCL2 282354Z 16011KT 29/21 A2968 RMK A01 T02930206  RH  059%=      5-min Rain = 0
KCL2 282355Z 16010KT 29/21 A2968 RMK A01 T02930208  RH  060%=      5-min Rain = 0
KCL2 282356Z 16009KT 29/21 A2968 RMK A01 T02940209  RH  060%=      5-min Rain = 0
KCL2 282357Z 16007KT 29/21 A2968 RMK A01 T02920208  RH  061%=      5-min Rain = 0
KCL2 282358Z 15009KT 29/21 A2968 RMK A01 T02910209  RH  061%=      5-min Rain = 0
KCL2 282359Z 16012KT 29/21 A2968 RMK A01 T02890207  RH  061%=      5-min Rain = 0
KCL2 290000Z 16015KT 29/21 A2968 RMK A01 T02880206  RH  061%=      5-min Rain = 0
KCL2 290001Z 16015KT 29/21 A2968 RMK A01 T02890205  RH  061%=      5-min Rain = 0
KCL2 290002Z 16015KT 29/20 A2968 RMK A01 T02900204  RH  060%=      5-min Rain = 0
KCL2 290003Z 16014KT 29/20 A2968 RMK A01 T02910204  RH  060%=      5-min Rain = 0
KCL2 290004Z 16015KT 29/20 A2968 RMK A01 T02920204  RH  059%=      5-min Rain = 0
KCL2 290005Z 15014KT 29/20 A2968 RMK A01 T02920204  RH  059%=      5-min Rain = 0
KCL2 290006Z 16015KT 29/21 A2968 RMK A01 T02930205  RH  059%=      5-min Rain = 0
KCL2 290007Z 16015KT 29/20 A2968 RMK A01 T02930204  RH  059%=      5-min Rain = 0
KCL2 290008Z 16012KT 29/21 A2968 RMK A01 T02930206  RH  059%=      5-min Rain = 0
KCL2 290009Z 16013KT 29/20 A2968 RMK A01 T02930204  RH  059%=      5-min Rain = 0
KCL2 290010Z 16014KT 29/20 A2968 RMK A01 T02930204  RH  059%=      5-min Rain = 0
KCL2 290011Z 16014KT 29/20 A2968 RMK A01 T02920204  RH  059%=      5-min Rain = 0
KCL2 290012Z 17015KT 29/20 A2968 RMK A01 T02910203  RH  059%=      5-min Rain = 0
KCL2 290013Z 16012KT 29/20 A2968 RMK A01 T02900204  RH  060%=      5-min Rain = 0
KCL2 290014Z 16011KT 29/21 A2968 RMK A01 T02900205  RH  060%=      5-min Rain = 0
KCL2 290015Z 16011KT 29/21 A2968 RMK A01 T02900205  RH  060%=      5-min Rain = 0
KCL2 290016Z 16011G16KT 29/21 A2968 RMK A01 T02900205  RH  060%=      5-min Rain = 0
KCL2 290017Z 15012G17KT 29/20 A2968 RMK A01 T02900204  RH  060%=      5-min Rain = 0
KCL2 290018Z 16011KT 29/21 A2968 RMK A01 T02900206  RH  061%=      5-min Rain = 0
KCL2 290019Z 16011KT 29/21 A2968 RMK A01 T02890206  RH  061%=      5-min Rain = 0
KCL2 290020Z 16013KT 29/21 A2968 RMK A01 T02880205  RH  061%=      5-min Rain = 0
KCL2 290021Z 16012KT 29/20 A2968 RMK A01 T02880203  RH  060%=      5-min Rain = 0
KCL2 290022Z 15009KT 29/21 A2968 RMK A01 T02880205  RH  061%=      5-min Rain = 0
KCL2 290023Z 15011KT 29/21 A2968 RMK A01 T02880205  RH  061%=      5-min Rain = 0
KCL2 290024Z 16010KT 29/21 A2968 RMK A01 T02880205  RH  061%=      5-min Rain = 0
KCL2 290025Z 15011KT 29/20 A2968 RMK A01 T02870203  RH  060%=      5-min Rain = 0
KCL2 290026Z 16013KT 29/20 A2968 RMK A01 T02870203  RH  060%=      5-min Rain = 0
KCL2 290027Z 16010KT 29/20 A2968 RMK A01 T02880203  RH  060%=      5-min Rain = 0
KCL2 290028Z 16009KT 29/20 A2968 RMK A01 T02880204  RH  061%=      5-min Rain = 0
KCL2 290029Z 16010KT 29/20 A2969 RMK A01 T02880204  RH  061%=      5-min Rain = 0
KCL2 290030Z 15011KT 29/20 A2969 RMK A01 T02880204  RH  061%=      5-min Rain = 0
KCL2 290031Z 16013KT 29/20 A2969 RMK A01 T02880204  RH  060%=      5-min Rain = 0
KCL2 290032Z 16011KT 29/20 A2969 RMK A01 T02870203  RH  060%=      5-min Rain = 0
KCL2 290033Z 16013KT 29/20 A2969 RMK A01 T02870204  RH  061%=      5-min Rain = 0
KCL2 290034Z 16013KT 29/20 A2969 RMK A01 T02870203  RH  060%=      5-min Rain = 0
KCL2 290035Z 16011KT 29/20 A2969 RMK A01 T02870203  RH  060%=      5-min Rain = 0
KCL2 290036Z 16009KT 29/20 A2969 RMK A01 T02870204  RH  061%=      5-min Rain = 0
KCL2 290037Z 16009KT 29/20 A2969 RMK A01 T02860204  RH  061%=      5-min Rain = 0
KCL2 290038Z 16011KT 29/20 A2969 RMK A01 T02860203  RH  061%=      5-min Rain = 0
KCL2 290039Z 16014KT 29/20 A2969 RMK A01 T02860202  RH  061%=      5-min Rain = 0
KCL2 290040Z 16012KT 29/20 A2969 RMK A01 T02850202  RH  060%=      5-min Rain = 0
KCL2 290041Z 15011KT 29/20 A2969 RMK A01 T02860202  RH  061%=      5-min Rain = 0
KCL2 290042Z 15012KT 29/20 A2969 RMK A01 T02860202  RH  061%=      5-min Rain = 0
KCL2 290043Z 15011KT 28/20 A2969 RMK A01 T02840202  RH  061%=      5-min Rain = 0
KCL2 290044Z 15013KT 28/20 A2969 RMK A01 T02830202  RH  061%=      5-min Rain = 0
KCL2 290045Z 16010KT 28/20 A2969 RMK A01 T02820202  RH  062%=      5-min Rain = 0
KCL2 290046Z 15010G15KT 28/20 A2969 RMK A01 T02810203  RH  062%=      5-min Rain = 0
KCL2 290047Z 15015KT 28/20 A2969 RMK A01 T02800203  RH  063%=      5-min Rain = 0
KCL2 290048Z 16014G20KT 28/20 A2969 RMK A01 T02800204  RH  063%=      5-min Rain = 0
KCL2 290049Z 16014KT 28/20 A2969 RMK A01 T02790204  RH  064%=      5-min Rain = 0
KCL2 290050Z 14011KT 28/21 A2969 RMK A01 T02780205  RH  064%=      5-min Rain = 0
KCL2 290051Z 16014KT 28/21 A297 RMK A01 T02780205  RH  065%=      5-min Rain = 0
KCL2 290052Z 15013KT 28/20 A297 RMK A01 T02770204  RH  065%=      5-min Rain = 0
KCL2 290053Z 15014G24KT 28/20 A297 RMK A01 T02760204  RH  065%=      5-min Rain = 0
KCL2 290054Z 14018G23KT 28/20 A297 RMK A01 T02750204  RH  065%=      5-min Rain = 0
KCL2 290055Z 15013KT 28/20 A297 RMK A01 T02750203  RH  065%=      5-min Rain = 0
KCL2 290056Z 15015G20KT 28/20 A297 RMK A01 T02750204  RH  065%=      5-min Rain = 0
KCL2 290057Z 15016G21KT 27/20 A297 RMK A01 T02740203  RH  065%=      5-min Rain = 0
KCL2 290058Z 15014KT 27/20 A297 RMK A01 T02740203  RH  065%=      5-min Rain = 0
KCL2 290059Z 14014G20KT 27/20 A297 RMK A01 T02740204  RH  066%=      5-min Rain = 0
KCL2 290100Z 16014KT 27/20 A297 RMK A01 T02740204  RH  066%=      5-min Rain = 0
KCL2 290101Z 15013KT 27/20 A297 RMK A01 T02730204  RH  066%=      5-min Rain = 0
KCL2 290102Z 15012G17KT 27/20 A297 RMK A01 T02730204  RH  066%=      5-min Rain = 0
KCL2 290103Z 15013KT 27/20 A297 RMK A01 T02720204  RH  066%=      5-min Rain = 0
KCL2 290104Z 15015KT 27/20 A297 RMK A01 T02720204  RH  066%=      5-min Rain = 0
KCL2 290105Z 15012KT 27/20 A297 RMK A01 T02710204  RH  066%=      5-min Rain = 0
KCL2 290106Z 15013KT 27/20 A297 RMK A01 T02710204  RH  067%=      5-min Rain = 0
KCL2 290107Z 15013KT 27/20 A297 RMK A01 T02710204  RH  067%=      5-min Rain = 0
KCL2 290108Z 16013KT 27/20 A297 RMK A01 T02700204  RH  067%=      5-min Rain = 0
KCL2 290109Z 15014KT 27/20 A297 RMK A01 T02700204  RH  067%=      5-min Rain = 0
KCL2 290110Z 16013KT 27/20 A297 RMK A01 T02690204  RH  067%=      5-min Rain = 0
KCL2 290111Z 16011KT 27/20 A297 RMK A01 T02690204  RH  068%=      5-min Rain = 0
KCL2 290112Z 15012KT 27/20 A297 RMK A01 T02680204  RH  068%=      5-min Rain = 0
KCL2 290113Z 15012KT 27/20 A297 RMK A01 T02680204  RH  068%=      5-min Rain = 0
KCL2 290114Z 16012KT 27/20 A297 RMK A01 T02670204  RH  068%=      5-min Rain = 0
KCL2 290115Z 16011KT 27/21 A297 RMK A01 T02670205  RH  069%=      5-min Rain = 0
KCL2 290116Z 16011KT 27/20 A297 RMK A01 T02670204  RH  069%=      5-min Rain = 0
KCL2 290117Z 16013KT 27/21 A297 RMK A01 T02660205  RH  069%=      5-min Rain = 0
KCL2 290118Z 16014KT 27/20 A297 RMK A01 T02660204  RH  069%=      5-min Rain = 0
KCL2 290119Z 16013KT 27/20 A297 RMK A01 T02650203  RH  069%=      5-min Rain = 0
KCL2 290120Z 16014KT 27/20 A297 RMK A01 T02650203  RH  069%=      5-min Rain = 0
KCL2 290121Z 16010KT 27/20 A297 RMK A01 T02650204  RH  069%=      5-min Rain = 0
KCL2 290122Z 16009KT 27/20 A297 RMK A01 T02650204  RH  069%=      5-min Rain = 0
KCL2 290123Z 16010KT 26/20 A297 RMK A01 T02640204  RH  070%=      5-min Rain = 0
KCL2 290124Z 16010KT 26/20 A2971 RMK A01 T02630204  RH  070%=      5-min Rain = 0
KCL2 290125Z 15011KT 26/20 A2971 RMK A01 T02620204  RH  070%=      5-min Rain = 0
KCL2 290126Z 15010G15KT 26/20 A2971 RMK A01 T02620204  RH  070%=      5-min Rain = 0
KCL2 290127Z 16015G21KT 26/20 A2971 RMK A01 T02620203  RH  070%=      5-min Rain = 0
KCL2 290128Z 15011KT 26/20 A2971 RMK A01 T02620203  RH  070%=      5-min Rain = 0
KCL2 290129Z 16014G20KT 26/20 A2971 RMK A01 T02620203  RH  070%=      5-min Rain = 0
KCL2 290130Z 16013KT 26/20 A2971 RMK A01 T02620202  RH  070%=      5-min Rain = 0
KCL2 290131Z 16013KT 26/20 A2971 RMK A01 T02610202  RH  070%=      5-min Rain = 0
KCL2 290132Z 16012KT 26/20 A2971 RMK A01 T02610202  RH  070%=      5-min Rain = 0
KCL2 290133Z 15012G17KT 26/20 A2971 RMK A01 T02610202  RH  070%=      5-min Rain = 0
KCL2 290134Z 16012KT 26/20 A2971 RMK A01 T02600202  RH  070%=      5-min Rain = 0
KCL2 290135Z 15012KT 26/20 A2971 RMK A01 T02600201  RH  070%=      5-min Rain = 0
KCL2 290136Z 16014KT 26/20 A2971 RMK A01 T02590201  RH  070%=      5-min Rain = 0
KCL2 290137Z 16011KT 26/20 A2971 RMK A01 T02590201  RH  070%=      5-min Rain = 0
KCL2 290138Z 16013G18KT 26/20 A2971 RMK A01 T02590201  RH  070%=      5-min Rain = 0
KCL2 290139Z 16010G15KT 26/20 A2971 RMK A01 T02590201  RH  070%=      5-min Rain = 0
KCL2 290140Z 16011G16KT 26/20 A2971 RMK A01 T02590202  RH  071%=      5-min Rain = 0
KCL2 290141Z 16012G18KT 26/20 A2971 RMK A01 T02580201  RH  071%=      5-min Rain = 0
KCL2 290142Z 16012KT 26/20 A2971 RMK A01 T02580201  RH  071%=      5-min Rain = 0
KCL2 290143Z 16012KT 26/20 A2971 RMK A01 T02570201  RH  071%=      5-min Rain = 0
KCL2 290144Z 16012KT 26/20 A2971 RMK A01 T02570201  RH  071%=      5-min Rain = 0
KCL2 290145Z 16012KT 26/20 A2972 RMK A01 T02570201  RH  071%=      5-min Rain = 0
KCL2 290146Z 17012KT 26/20 A2971 RMK A01 T02570201  RH  071%=      5-min Rain = 0
KCL2 290147Z 16013KT 26/20 A2972 RMK A01 T02560201  RH  071%=      5-min Rain = 0
KCL2 290148Z 16014KT 26/20 A2972 RMK A01 T02560201  RH  071%=      5-min Rain = 0
KCL2 290149Z 16013KT 26/20 A2972 RMK A01 T02560201  RH  071%=      5-min Rain = 0
KCL2 290150Z 17014KT 26/20 A2972 RMK A01 T02560201  RH  072%=      5-min Rain = 0
KCL2 290151Z 16011KT 26/20 A2972 RMK A01 T02560201  RH  072%=      5-min Rain = 0
KCL2 290152Z 16012KT 26/20 A2972 RMK A01 T02550201  RH  072%=      5-min Rain = 0
KCL2 290153Z 16012G18KT 26/20 A2972 RMK A01 T02550201  RH  072%=      5-min Rain = 0
KCL2 290154Z 16013KT 26/20 A2972 RMK A01 T02550201  RH  072%=      5-min Rain = 0
KCL2 290155Z 16014KT 26/20 A2972 RMK A01 T02550201  RH  072%=      5-min Rain = 0
KCL2 290156Z 16011KT 26/20 A2972 RMK A01 T02550200  RH  072%=      5-min Rain = 0
KCL2 290157Z 17012KT 26/20 A2972 RMK A01 T02550200  RH  072%=      5-min Rain = 0
KCL2 290158Z 16013G18KT 25/20 A2972 RMK A01 T02540200  RH  072%=      5-min Rain = 0
KCL2 290159Z 16014KT 25/20 A2972 RMK A01 T02540200  RH  072%=      5-min Rain = 0
KCL2 290200Z 16012KT 25/20 A2972 RMK A01 T02540200  RH  072%=      5-min Rain = 0
KCL2 290201Z 16012KT 25/20 A2972 RMK A01 T02530200  RH  072%=      5-min Rain = 0
KCL2 290202Z 16012G17KT 25/20 A2972 RMK A01 T02530200  RH  073%=      5-min Rain = 0
KCL2 290203Z 16011KT 25/20 A2972 RMK A01 T02530200  RH  073%=      5-min Rain = 0
KCL2 290204Z 16014KT 25/20 A2972 RMK A01 T02530200  RH  073%=      5-min Rain = 0
KCL2 290205Z 16012KT 25/20 A2972 RMK A01 T02520200  RH  073%=      5-min Rain = 0
KCL2 290206Z 17014KT 25/20 A2972 RMK A01 T02520200  RH  073%=      5-min Rain = 0
KCL2 290207Z 16012KT 25/20 A2972 RMK A01 T02520200  RH  073%=      5-min Rain = 0
KCL2 290208Z 17014KT 25/20 A2972 RMK A01 T02520200  RH  073%=      5-min Rain = 0
KCL2 290209Z 16011KT 25/20 A2972 RMK A01 T02510200  RH  073%=      5-min Rain = 0
KCL2 290210Z 16012KT 25/20 A2972 RMK A01 T02510200  RH  073%=      5-min Rain = 0
KCL2 290211Z 16013KT 25/20 A2972 RMK A01 T02510200  RH  073%=      5-min Rain = 0
KCL2 290212Z 16013KT 25/20 A2972 RMK A01 T02510199  RH  073%=      5-min Rain = 0
KCL2 290213Z 16010KT 25/20 A2972 RMK A01 T02510199  RH  073%=      5-min Rain = 0
KCL2 290214Z 16012KT 25/20 A2972 RMK A01 T02510200  RH  073%=      5-min Rain = 0
KCL2 290215Z 16012KT 25/20 A2973 RMK A01 T02500200  RH  073%=      5-min Rain = 0
KCL2 290216Z 17011KT 25/20 A2973 RMK A01 T02500199  RH  073%=      5-min Rain = 0
KCL2 290217Z 17011KT 25/20 A2973 RMK A01 T02500199  RH  073%=      5-min Rain = 0
KCL2 290218Z 16010KT 25/20 A2973 RMK A01 T02490200  RH  074%=      5-min Rain = 0
KCL2 290219Z 17010KT 25/20 A2973 RMK A01 T02490199  RH  074%=      5-min Rain = 0
KCL2 290220Z 17010KT 25/20 A2973 RMK A01 T02480199  RH  074%=      5-min Rain = 0
KCL2 290221Z 16008KT 25/20 A2973 RMK A01 T02480199  RH  074%=      5-min Rain = 0
KCL2 290222Z 17010KT 25/20 A2973 RMK A01 T02470199  RH  075%=      5-min Rain = 0
KCL2 290223Z 16010KT 25/20 A2973 RMK A01 T02470199  RH  075%=      5-min Rain = 0
KCL2 290224Z 17010KT 25/20 A2973 RMK A01 T02470199  RH  075%=      5-min Rain = 0
KCL2 290225Z 17010KT 25/20 A2973 RMK A01 T02460199  RH  075%=      5-min Rain = 0
KCL2 290226Z 17012G17KT 25/20 A2973 RMK A01 T02470199  RH  075%=      5-min Rain = 0
KCL2 290227Z 17011KT 25/20 A2973 RMK A01 T02460198  RH  075%=      5-min Rain = 0
KCL2 290228Z 17013KT 25/20 A2973 RMK A01 T02470198  RH  074%=      5-min Rain = 0
KCL2 290229Z 16012KT 25/20 A2973 RMK A01 T02470198  RH  074%=      5-min Rain = 0
KCL2 290230Z 17012KT 25/20 A2973 RMK A01 T02480198  RH  074%=      5-min Rain = 0
KCL2 290231Z 17013KT 25/20 A2973 RMK A01 T02480198  RH  074%=      5-min Rain = 0
KCL2 290232Z 16011KT 25/20 A2973 RMK A01 T02480198  RH  074%=      5-min Rain = 0
KCL2 290233Z 17012KT 25/20 A2973 RMK A01 T02480198  RH  074%=      5-min Rain = 0
KCL2 290234Z 17011G17KT 25/20 A2973 RMK A01 T02480198  RH  074%=      5-min Rain = 0
KCL2 290235Z 17014KT 25/20 A2973 RMK A01 T02480198  RH  074%=      5-min Rain = 0
KCL2 290236Z 16012KT 25/20 A2973 RMK A01 T02480198  RH  074%=      5-min Rain = 0
KCL2 290237Z 17012KT 25/20 A2974 RMK A01 T02480198  RH  074%=      5-min Rain = 0
KCL2 290238Z 17012KT 25/20 A2974 RMK A01 T02470198  RH  074%=      5-min Rain = 0
KCL2 290239Z 17012KT 25/20 A2974 RMK A01 T02460198  RH  074%=      5-min Rain = 0
KCL2 290240Z 17011KT 25/20 A2974 RMK A01 T02460198  RH  075%=      5-min Rain = 0
KCL2 290241Z 17011KT 25/20 A2974 RMK A01 T02460198  RH  075%=      5-min Rain = 0
KCL2 290242Z 17010KT 25/20 A2974 RMK A01 T02460198  RH  075%=      5-min Rain = 0
KCL2 290243Z 17012KT 25/20 A2974 RMK A01 T02450198  RH  075%=      5-min Rain = 0
KCL2 290244Z 17011KT 25/20 A2974 RMK A01 T02450198  RH  075%=      5-min Rain = 0
KCL2 290245Z 17011KT 24/20 A2974 RMK A01 T02440198  RH  075%=      5-min Rain = 0
KCL2 290246Z 16012KT 24/20 A2974 RMK A01 T02440198  RH  075%=      5-min Rain = 0
KCL2 290247Z 17013KT 24/20 A2974 RMK A01 T02440198  RH  075%=      5-min Rain = 0
KCL2 290248Z 17011KT 25/20 A2974 RMK A01 T02450198  RH  075%=      5-min Rain = 0
KCL2 290249Z 17011KT 25/20 A2974 RMK A01 T02450198  RH  075%=      5-min Rain = 0
KCL2 290250Z 17011KT 24/20 A2974 RMK A01 T02440198  RH  075%=      5-min Rain = 0
KCL2 290251Z 16010KT 25/20 A2974 RMK A01 T02450198  RH  075%=      5-min Rain = 0
KCL2 290252Z 17010KT 25/20 A2974 RMK A01 T02450198  RH  075%=      5-min Rain = 0
KCL2 290253Z 17009KT 24/20 A2974 RMK A01 T02440198  RH  076%=      5-min Rain = 0
KCL2 290254Z 17011KT 24/20 A2974 RMK A01 T02430198  RH  076%=      5-min Rain = 0
KCL2 290255Z 17011KT 24/20 A2974 RMK A01 T02430198  RH  076%=      5-min Rain = 0
KCL2 290256Z 16010KT 24/20 A2974 RMK A01 T02420198  RH  076%=      5-min Rain = 0
KCL2 290257Z 17012KT 24/20 A2974 RMK A01 T02420198  RH  076%=      5-min Rain = 0
KCL2 290258Z 16012KT 24/20 A2974 RMK A01 T02420197  RH  076%=      5-min Rain = 0
KCL2 290259Z 17012KT 24/20 A2974 RMK A01 T02420197  RH  076%=      5-min Rain = 0
KCL2 290300Z 16012KT 24/20 A2974 RMK A01 T02420197  RH  076%=      5-min Rain = 0
KCL2 290301Z 16010KT 24/20 A2974 RMK A01 T02430197  RH  076%=      5-min Rain = 0
KCL2 290302Z 16009KT 24/20 A2974 RMK A01 T02430197  RH  076%=      5-min Rain = 0
KCL2 290303Z 17009KT 24/20 A2974 RMK A01 T02420197  RH  076%=      5-min Rain = 0
KCL2 290304Z 16009KT 24/20 A2974 RMK A01 T02420198  RH  076%=      5-min Rain = 0
KCL2 290305Z 16010KT 24/20 A2975 RMK A01 T02410197  RH  077%=      5-min Rain = 0
KCL2 290306Z 16010KT 24/20 A2974 RMK A01 T02410197  RH  077%=      5-min Rain = 0
KCL2 290307Z 16011KT 24/20 A2975 RMK A01 T02410197  RH  077%=      5-min Rain = 0
KCL2 290308Z 17011KT 24/20 A2975 RMK A01 T02400197  RH  077%=      5-min Rain = 0
KCL2 290309Z 16012KT 24/20 A2975 RMK A01 T02400197  RH  077%=      5-min Rain = 0
KCL2 290310Z 17011KT 24/20 A2975 RMK A01 T02400196  RH  076%=      5-min Rain = 0
KCL2 290311Z 17009KT 24/20 A2975 RMK A01 T02410197  RH  076%=      5-min Rain = 0
KCL2 290312Z 17012KT 24/20 A2975 RMK A01 T02400197  RH  076%=      5-min Rain = 0
KCL2 290313Z 17010KT 24/20 A2975 RMK A01 T02400196  RH  076%=      5-min Rain = 0
KCL2 290314Z 17011KT 24/20 A2975 RMK A01 T02400197  RH  076%=      5-min Rain = 0
KCL2 290315Z 16010KT 24/20 A2975 RMK A01 T02400196  RH  077%=      5-min Rain = 0
KCL2 290316Z 16013KT 24/20 A2975 RMK A01 T02400196  RH  077%=      5-min Rain = 0
KCL2 290317Z 16010KT 24/20 A2975 RMK A01 T02400196  RH  076%=      5-min Rain = 0
KCL2 290318Z 17011KT 24/20 A2975 RMK A01 T02400196  RH  076%=      5-min Rain = 0
KCL2 290319Z 16011KT 24/20 A2975 RMK A01 T02400196  RH  076%=      5-min Rain = 0
KCL2 290320Z 17012KT 24/20 A2975 RMK A01 T02400196  RH  076%=      5-min Rain = 0
KCL2 290321Z 17010KT 24/20 A2975 RMK A01 T02400196  RH  076%=      5-min Rain = 0
KCL2 290322Z 17010G15KT 24/20 A2975 RMK A01 T02400196  RH  077%=      5-min Rain = 0
KCL2 290323Z 16011KT 24/20 A2975 RMK A01 T02390196  RH  077%=      5-min Rain = 0
KCL2 290324Z 16010KT 24/20 A2975 RMK A01 T02400196  RH  077%=      5-min Rain = 0
KCL2 290325Z 17009KT 24/20 A2975 RMK A01 T02390196  RH  077%=      5-min Rain = 0
KCL2 290326Z 16010KT 24/20 A2975 RMK A01 T02390196  RH  077%=      5-min Rain = 0
KCL2 290327Z 17008KT 24/20 A2975 RMK A01 T02380196  RH  077%=      5-min Rain = 0
KCL2 290328Z 17009KT 24/20 A2975 RMK A01 T02370196  RH  078%=      5-min Rain = 0
KCL2 290329Z 16008KT 24/20 A2975 RMK A01 T02360195  RH  078%=      5-min Rain = 0
KCL2 290330Z 16009KT 24/20 A2975 RMK A01 T02360195  RH  078%=      5-min Rain = 0
KCL2 290331Z 16009KT 24/20 A2975 RMK A01 T02360196  RH  078%=      5-min Rain = 0
KCL2 290332Z 16009KT 24/20 A2975 RMK A01 T02360196  RH  078%=      5-min Rain = 0
KCL2 290333Z 16011KT 24/20 A2975 RMK A01 T02360196  RH  078%=      5-min Rain = 0
KCL2 290334Z 16009KT 24/20 A2975 RMK A01 T02360196  RH  078%=      5-min Rain = 0
KCL2 290335Z 16009KT 24/20 A2975 RMK A01 T02360196  RH  078%=      5-min Rain = 0
KCL2 290336Z 16008KT 24/20 A2975 RMK A01 T02360196  RH  078%=      5-min Rain = 0
KCL2 290337Z 17008KT 24/20 A2976 RMK A01 T02350196  RH  078%=      5-min Rain = 0
KCL2 290338Z 17009KT 24/20 A2976 RMK A01 T02350196  RH  078%=      5-min Rain = 0
KCL2 290339Z 16009KT 24/20 A2976 RMK A01 T02350196  RH  079%=      5-min Rain = 0
KCL2 290340Z 17010KT 24/20 A2976 RMK A01 T02350195  RH  079%=      5-min Rain = 0
KCL2 290341Z 17010KT 24/20 A2976 RMK A01 T02350195  RH  078%=      5-min Rain = 0
KCL2 290342Z 16009KT 24/20 A2975 RMK A01 T02350195  RH  079%=      5-min Rain = 0
KCL2 290343Z 17009KT 23/20 A2976 RMK A01 T02340195  RH  079%=      5-min Rain = 0
KCL2 290344Z 16011KT 23/20 A2975 RMK A01 T02340195  RH  079%=      5-min Rain = 0
KCL2 290345Z 17011KT 23/20 A2975 RMK A01 T02340195  RH  078%=      5-min Rain = 0
KCL2 290346Z 17011KT 24/20 A2975 RMK A01 T02350195  RH  078%=      5-min Rain = 0
KCL2 290347Z 17010KT 24/20 A2975 RMK A01 T02350195  RH  078%=      5-min Rain = 0
KCL2 290348Z 17010KT 24/20 A2976 RMK A01 T02350195  RH  078%=      5-min Rain = 0
KCL2 290349Z 16008KT 24/19 A2976 RMK A01 T02350194  RH  078%=      5-min Rain = 0
KCL2 290350Z 16011KT 24/20 A2976 RMK A01 T02350195  RH  078%=      5-min Rain = 0
KCL2 290351Z 16010KT 24/20 A2975 RMK A01 T02350195  RH  078%=      5-min Rain = 0
KCL2 290352Z 16009KT 24/20 A2976 RMK A01 T02350195  RH  078%=      5-min Rain = 0
KCL2 290353Z 16009KT 24/20 A2976 RMK A01 T02350195  RH  078%=      5-min Rain = 0
KCL2 290354Z 17008KT 23/20 A2976 RMK A01 T02340195  RH  079%=      5-min Rain = 0
KCL2 290355Z 17008KT 23/20 A2976 RMK A01 T02330195  RH  079%=      5-min Rain = 0
KCL2 290356Z 16008KT 23/20 A2976 RMK A01 T02330195  RH  079%=      5-min Rain = 0
KCL2 290357Z 16009KT 23/20 A2976 RMK A01 T02330195  RH  079%=      5-min Rain = 0
KCL2 290358Z 17010KT 23/20 A2976 RMK A01 T02330195  RH  079%=      5-min Rain = 0
KCL2 290359Z 16010KT 23/19 A2976 RMK A01 T02330194  RH  079%=      5-min Rain = 0
KCL2 290400Z 16009KT 23/19 A2976 RMK A01 T02330194  RH  079%=      5-min Rain = 0
KCL2 290401Z 17009KT 23/20 A2976 RMK A01 T02330195  RH  079%=      5-min Rain = 0
KCL2 290402Z 16010KT 23/19 A2976 RMK A01 T02320194  RH  079%=      5-min Rain = 0
KCL2 290403Z 16010KT 23/19 A2976 RMK A01 T02320194  RH  079%=      5-min Rain = 0
KCL2 290404Z 16010KT 23/20 A2976 RMK A01 T02320195  RH  079%=      5-min Rain = 0
KCL2 290405Z 16009KT 23/19 A2976 RMK A01 T02320194  RH  079%=      5-min Rain = 0
KCL2 290406Z 16009KT 23/20 A2976 RMK A01 T02320195  RH  079%=      5-min Rain = 0
KCL2 290407Z 16010KT 23/19 A2976 RMK A01 T02320194  RH  079%=      5-min Rain = 0
KCL2 290408Z 16009KT 23/19 A2976 RMK A01 T02310194  RH  079%=      5-min Rain = 0
KCL2 290409Z 16010KT 23/19 A2976 RMK A01 T02310194  RH  079%=      5-min Rain = 0
KCL2 290410Z 16009KT 23/20 A2976 RMK A01 T02320195  RH  080%=      5-min Rain = 0
KCL2 290411Z 16009KT 23/19 A2976 RMK A01 T02310194  RH  080%=      5-min Rain = 0
KCL2 290412Z 16009KT 23/20 A2976 RMK A01 T02310195  RH  080%=      5-min Rain = 0
KCL2 290413Z 16010KT 23/19 A2976 RMK A01 T02300194  RH  080%=      5-min Rain = 0
KCL2 290414Z 16009KT 23/19 A2976 RMK A01 T02300194  RH  080%=      5-min Rain = 0
KCL2 290415Z 16010KT 23/19 A2976 RMK A01 T02300194  RH  080%=      5-min Rain = 0
KCL2 290416Z 16009KT 23/19 A2976 RMK A01 T02300194  RH  080%=      5-min Rain = 0
KCL2 290417Z 16008KT 23/19 A2976 RMK A01 T02290194  RH  081%=      5-min Rain = 0
KCL2 290418Z 16008KT 23/19 A2976 RMK A01 T02290194  RH  081%=      5-min Rain = 0
KCL2 290419Z 16008KT 23/19 A2976 RMK A01 T02290194  RH  081%=      5-min Rain = 0
KCL2 290420Z 16008KT 23/19 A2976 RMK A01 T02280194  RH  081%=      5-min Rain = 0
KCL2 290421Z 16008KT 23/19 A2976 RMK A01 T02280194  RH  081%=      5-min Rain = 0
KCL2 290422Z 16008KT 23/19 A2976 RMK A01 T02280194  RH  081%=      5-min Rain = 0
KCL2 290423Z 16009KT 23/19 A2976 RMK A01 T02280194  RH  081%=      5-min Rain = 0
KCL2 290424Z 16008KT 23/20 A2976 RMK A01 T02280195  RH  081%=      5-min Rain = 0
KCL2 290425Z 16008KT 23/19 A2976 RMK A01 T02280194  RH  081%=      5-min Rain = 0
KCL2 290426Z 17007KT 23/19 A2976 RMK A01 T02270194  RH  081%=      5-min Rain = 0
KCL2 290427Z 16008KT 23/19 A2976 RMK A01 T02270194  RH  082%=      5-min Rain = 0
KCL2 290428Z 16008KT 23/19 A2976 RMK A01 T02270194  RH  082%=      5-min Rain = 0
KCL2 290429Z 16009KT 23/19 A2976 RMK A01 T02260194  RH  082%=      5-min Rain = 0
KCL2 290430Z 16008KT 23/19 A2976 RMK A01 T02260194  RH  082%=      5-min Rain = 0
KCL2 290431Z 16009KT 23/19 A2976 RMK A01 T02260194  RH  082%=      5-min Rain = 0
KCL2 290432Z 16010KT 23/19 A2976 RMK A01 T02260194  RH  082%=      5-min Rain = 0
KCL2 290433Z 16010KT 23/19 A2976 RMK A01 T02260193  RH  082%=      5-min Rain = 0
KCL2 290434Z 17009KT 23/19 A2976 RMK A01 T02270194  RH  082%=      5-min Rain = 0
KCL2 290435Z 17009KT 23/19 A2976 RMK A01 T02270194  RH  082%=      5-min Rain = 0
KCL2 290436Z 16010KT 23/19 A2976 RMK A01 T02270194  RH  082%=      5-min Rain = 0
KCL2 290437Z 17010KT 23/19 A2976 RMK A01 T02270193  RH  082%=      5-min Rain = 0
KCL2 290438Z 17009KT 23/19 A2977 RMK A01 T02270193  RH  081%=      5-min Rain = 0
KCL2 290439Z 17010KT 23/19 A2977 RMK A01 T02270193  RH  081%=      5-min Rain = 0
KCL2 290440Z 16011KT 23/19 A2977 RMK A01 T02270193  RH  081%=      5-min Rain = 0
KCL2 290441Z 17010KT 23/19 A2977 RMK A01 T02280193  RH  081%=      5-min Rain = 0
KCL2 290442Z 17010KT 23/19 A2977 RMK A01 T02280193  RH  081%=      5-min Rain = 0
KCL2 290443Z 17010KT 23/19 A2977 RMK A01 T02280193  RH  081%=      5-min Rain = 0
KCL2 290444Z 17010KT 23/19 A2977 RMK A01 T02280193  RH  081%=      5-min Rain = 0
KCL2 290445Z 16010KT 23/19 A2977 RMK A01 T02280194  RH  081%=      5-min Rain = 0
KCL2 290446Z 16010KT 23/19 A2977 RMK A01 T02280194  RH  081%=      5-min Rain = 0
KCL2 290447Z 17008KT 23/19 A2977 RMK A01 T02270193  RH  081%=      5-min Rain = 0
KCL2 290448Z 17010KT 23/19 A2977 RMK A01 T02270194  RH  081%=      5-min Rain = 0
KCL2 290449Z 16010KT 23/19 A2977 RMK A01 T02270193  RH  081%=      5-min Rain = 0
KCL2 290450Z 16009KT 23/19 A2977 RMK A01 T02270193  RH  081%=      5-min Rain = 0
KCL2 290451Z 17010KT 23/19 A2977 RMK A01 T02270193  RH  081%=      5-min Rain = 0
KCL2 290452Z 17009KT 23/19 A2977 RMK A01 T02270193  RH  081%=      5-min Rain = 0
KCL2 290453Z 17009KT 23/19 A2977 RMK A01 T02270193  RH  081%=      5-min Rain = 0
KCL2 290454Z 17011KT 23/19 A2977 RMK A01 T02260193  RH  081%=      5-min Rain = 0
KCL2 290455Z 16009KT 23/19 A2977 RMK A01 T02270193  RH  081%=      5-min Rain = 0
KCL2 290456Z 17009KT 23/19 A2977 RMK A01 T02270193  RH  081%=      5-min Rain = 0
KCL2 290457Z 17009KT 23/19 A2977 RMK A01 T02260193  RH  082%=      5-min Rain = 0
KCL2 290458Z 17009KT 23/19 A2977 RMK A01 T02260193  RH  082%=      5-min Rain = 0
KCL2 290459Z 17009KT 23/19 A2977 RMK A01 T02260193  RH  082%=      5-min Rain = 0

Page generated in 0.0883 seconds.